<?xml version="1.0" encoding="UTF-8" standalone="no" ?>
<gpx xmlns="http://www.topografix.com/GPX/1/1" xmlns:xsi="http://www.w3.org/2001/XMLSchema-instance" xsi:schemaLocation="http://www.topografix.com/GPX/1/1 http://www.topografix.com/GPX/1/1/gpx.xsd" version="1.1" creator="VisuGPX - https://www.visugpx.com">
  <metadata>
    <name>Les Deux Donon</name>
  </metadata>
  <wpt lat="48.50691" lon="7.14707">
    <ele>723</ele>
    <name><![CDATA[Parking au]]></name>
  </wpt>
  <wpt lat="48.50809" lon="7.1495">
    <ele>742</ele>
    <name><![CDATA[Carrefour GR5]]></name>
  </wpt>
  <wpt lat="48.50745" lon="7.15441">
    <ele>800</ele>
    <name><![CDATA[Carrefour GR Piste]]></name>
  </wpt>
  <wpt lat="48.51269" lon="7.16499">
    <ele>988</ele>
    <name><![CDATA[Grand]]></name>
  </wpt>
  <wpt lat="48.51587" lon="7.17025">
    <ele>830</ele>
    <name><![CDATA[Col entre les Deux Donons]]></name>
  </wpt>
  <wpt lat="48.51513" lon="7.17303">
    <ele>840</ele>
    <name><![CDATA[Carrefour Petit Donon]]></name>
  </wpt>
  <wpt lat="48.51852" lon="7.17413">
    <ele>894</ele>
    <name><![CDATA[Carrefour Petit Donon]]></name>
  </wpt>
  <wpt lat="48.51614" lon="7.17592">
    <ele>932</ele>
    <name><![CDATA[Le]]></name>
  </wpt>
  <wpt lat="48.51371" lon="7.18015">
    <ele>801</ele>
    <name><![CDATA[Carrefour boucle Petit Donon]]></name>
  </wpt>
  <wpt lat="48.50922" lon="7.17759">
    <ele>723</ele>
    <name><![CDATA[Carrefour large chemin]]></name>
  </wpt>
  <wpt lat="48.48537" lon="7.18083">
    <ele>420</ele>
    <name><![CDATA[Carrefour GR5]]></name>
  </wpt>
  <wpt lat="48.50686" lon="7.14713">
    <ele>722</ele>
    <name><![CDATA[Retour au parking du col du Donon]]></name>
  </wpt>
  <trk>
    <name><![CDATA[Les Deux Donon]]></name>
    <trkseg>
      <trkpt lat="48.50691" lon="7.14707">
        <ele>723</ele>
        <time>2016-08-12T10:28:19+02:00</time>
      </trkpt>
      <trkpt lat="48.50695" lon="7.14704">
        <ele>723</ele>
        <time>2016-08-12T10:29:31+02:00</time>
      </trkpt>
      <trkpt lat="48.50712" lon="7.14688">
        <ele>725</ele>
        <time>2016-08-12T10:29:49+02:00</time>
      </trkpt>
      <trkpt lat="48.50726" lon="7.14687">
        <ele>727</ele>
        <time>2016-08-12T10:30:01+02:00</time>
      </trkpt>
      <trkpt lat="48.50737" lon="7.14658">
        <ele>729</ele>
        <time>2016-08-12T10:30:16+02:00</time>
      </trkpt>
      <trkpt lat="48.50742" lon="7.14641">
        <ele>731</ele>
        <time>2016-08-12T10:30:28+02:00</time>
      </trkpt>
      <trkpt lat="48.50758" lon="7.14625">
        <ele>734</ele>
        <time>2016-08-12T10:30:42+02:00</time>
      </trkpt>
      <trkpt lat="48.50777" lon="7.14632">
        <ele>734</ele>
        <time>2016-08-12T10:30:55+02:00</time>
      </trkpt>
      <trkpt lat="48.50791" lon="7.14656">
        <ele>734</ele>
        <time>2016-08-12T10:31:08+02:00</time>
      </trkpt>
      <trkpt lat="48.50786" lon="7.14684">
        <ele>733</ele>
        <time>2016-08-12T10:31:22+02:00</time>
      </trkpt>
      <trkpt lat="48.50784" lon="7.14704">
        <ele>732</ele>
        <time>2016-08-12T10:31:33+02:00</time>
      </trkpt>
      <trkpt lat="48.50784" lon="7.14725">
        <ele>732</ele>
      </trkpt>
      <trkpt lat="48.50784" lon="7.14742">
        <ele>731</ele>
        <time>2016-08-12T10:31:48+02:00</time>
      </trkpt>
      <trkpt lat="48.50785" lon="7.14754">
        <ele>731</ele>
        <time>2016-08-12T10:31:56+02:00</time>
      </trkpt>
      <trkpt lat="48.50788" lon="7.14797">
        <ele>733</ele>
        <time>2016-08-12T10:32:14+02:00</time>
      </trkpt>
      <trkpt lat="48.50793" lon="7.14835">
        <ele>735</ele>
        <time>2016-08-12T10:32:32+02:00</time>
      </trkpt>
      <trkpt lat="48.50798" lon="7.14872">
        <ele>737</ele>
        <time>2016-08-12T10:32:52+02:00</time>
      </trkpt>
      <trkpt lat="48.50803" lon="7.14906">
        <ele>739</ele>
        <time>2016-08-12T10:33:08+02:00</time>
      </trkpt>
      <trkpt lat="48.50809" lon="7.1495">
        <ele>742</ele>
        <time>2016-08-12T10:33:28+02:00</time>
      </trkpt>
      <trkpt lat="48.50806" lon="7.14969">
        <ele>743</ele>
        <time>2016-08-12T10:33:43+02:00</time>
      </trkpt>
      <trkpt lat="48.50805" lon="7.14993">
        <ele>744</ele>
        <time>2016-08-12T10:33:57+02:00</time>
      </trkpt>
      <trkpt lat="48.50796" lon="7.15027">
        <ele>748</ele>
        <time>2016-08-12T10:34:15+02:00</time>
      </trkpt>
      <trkpt lat="48.50786" lon="7.1505">
        <ele>751</ele>
        <time>2016-08-12T10:34:30+02:00</time>
      </trkpt>
      <trkpt lat="48.50775" lon="7.15073">
        <ele>754</ele>
        <time>2016-08-12T10:34:45+02:00</time>
      </trkpt>
      <trkpt lat="48.50764" lon="7.15101">
        <ele>758</ele>
        <time>2016-08-12T10:35:03+02:00</time>
      </trkpt>
      <trkpt lat="48.50748" lon="7.15125">
        <ele>762</ele>
        <time>2016-08-12T10:35:24+02:00</time>
      </trkpt>
      <trkpt lat="48.50729" lon="7.15135">
        <ele>764</ele>
        <time>2016-08-12T10:35:40+02:00</time>
      </trkpt>
      <trkpt lat="48.50711" lon="7.15142">
        <ele>765</ele>
        <time>2016-08-12T10:35:58+02:00</time>
      </trkpt>
      <trkpt lat="48.50696" lon="7.15157">
        <ele>767</ele>
        <time>2016-08-12T10:36:12+02:00</time>
      </trkpt>
      <trkpt lat="48.5068" lon="7.15179">
        <ele>769</ele>
        <time>2016-08-12T10:36:27+02:00</time>
      </trkpt>
      <trkpt lat="48.50673" lon="7.15199">
        <ele>771</ele>
        <time>2016-08-12T10:36:39+02:00</time>
      </trkpt>
      <trkpt lat="48.50661" lon="7.15233">
        <ele>773</ele>
        <time>2016-08-12T10:36:57+02:00</time>
      </trkpt>
      <trkpt lat="48.5065" lon="7.15265">
        <ele>774</ele>
        <time>2016-08-12T10:37:16+02:00</time>
      </trkpt>
      <trkpt lat="48.50644" lon="7.15297">
        <ele>774</ele>
        <time>2016-08-12T10:37:34+02:00</time>
      </trkpt>
      <trkpt lat="48.50642" lon="7.15334">
        <ele>776</ele>
        <time>2016-08-12T10:37:55+02:00</time>
      </trkpt>
      <trkpt lat="48.50646" lon="7.15383">
        <ele>780</ele>
        <time>2016-08-12T10:38:15+02:00</time>
      </trkpt>
      <trkpt lat="48.50657" lon="7.15416">
        <ele>785</ele>
        <time>2016-08-12T10:38:35+02:00</time>
      </trkpt>
      <trkpt lat="48.50676" lon="7.15442">
        <ele>792</ele>
        <time>2016-08-12T10:38:50+02:00</time>
      </trkpt>
      <trkpt lat="48.50689" lon="7.15442">
        <ele>793</ele>
      </trkpt>
      <trkpt lat="48.50701" lon="7.15437">
        <ele>794</ele>
        <time>2016-08-12T10:39:46+02:00</time>
      </trkpt>
      <trkpt lat="48.50717" lon="7.15433">
        <ele>796</ele>
        <time>2016-08-12T10:40:02+02:00</time>
      </trkpt>
      <trkpt lat="48.50734" lon="7.15433">
        <ele>798</ele>
        <time>2016-08-12T10:40:20+02:00</time>
      </trkpt>
      <trkpt lat="48.50745" lon="7.15441">
        <ele>800</ele>
        <time>2016-08-12T10:40:28+02:00</time>
      </trkpt>
      <trkpt lat="48.50758" lon="7.15452">
        <ele>802</ele>
        <time>2016-08-12T10:40:46+02:00</time>
      </trkpt>
      <trkpt lat="48.50772" lon="7.15463">
        <ele>803</ele>
        <time>2016-08-12T10:41:00+02:00</time>
      </trkpt>
      <trkpt lat="48.50778" lon="7.15474">
        <ele>803</ele>
      </trkpt>
      <trkpt lat="48.50786" lon="7.15494">
        <ele>805</ele>
        <time>2016-08-12T10:41:17+02:00</time>
      </trkpt>
      <trkpt lat="48.508" lon="7.15522">
        <ele>808</ele>
        <time>2016-08-12T10:41:37+02:00</time>
      </trkpt>
      <trkpt lat="48.50818" lon="7.1555">
        <ele>811</ele>
        <time>2016-08-12T10:41:57+02:00</time>
      </trkpt>
      <trkpt lat="48.50829" lon="7.1557">
        <ele>814</ele>
        <time>2016-08-12T10:42:28+02:00</time>
      </trkpt>
      <trkpt lat="48.50839" lon="7.15593">
        <ele>818</ele>
        <time>2016-08-12T10:42:45+02:00</time>
      </trkpt>
      <trkpt lat="48.5085" lon="7.15615">
        <ele>822</ele>
        <time>2016-08-12T10:43:05+02:00</time>
      </trkpt>
      <trkpt lat="48.50863" lon="7.15634">
        <ele>825</ele>
        <time>2016-08-12T10:43:22+02:00</time>
      </trkpt>
      <trkpt lat="48.50875" lon="7.15656">
        <ele>829</ele>
        <time>2016-08-12T10:43:39+02:00</time>
      </trkpt>
      <trkpt lat="48.50895" lon="7.15683">
        <ele>833</ele>
        <time>2016-08-12T10:44:01+02:00</time>
      </trkpt>
      <trkpt lat="48.50914" lon="7.15709">
        <ele>838</ele>
        <time>2016-08-12T10:44:23+02:00</time>
      </trkpt>
      <trkpt lat="48.50929" lon="7.15724">
        <ele>839</ele>
        <time>2016-08-12T10:44:45+02:00</time>
      </trkpt>
      <trkpt lat="48.50943" lon="7.15734">
        <ele>839</ele>
      </trkpt>
      <trkpt lat="48.50949" lon="7.15751">
        <ele>842</ele>
        <time>2016-08-12T10:45:04+02:00</time>
      </trkpt>
      <trkpt lat="48.50964" lon="7.1576">
        <ele>842</ele>
      </trkpt>
      <trkpt lat="48.50972" lon="7.15771">
        <ele>844</ele>
        <time>2016-08-12T10:45:25+02:00</time>
      </trkpt>
      <trkpt lat="48.50968" lon="7.1578">
        <ele>846</ele>
      </trkpt>
      <trkpt lat="48.50954" lon="7.15786">
        <ele>849</ele>
        <time>2016-08-12T10:46:20+02:00</time>
      </trkpt>
      <trkpt lat="48.50931" lon="7.15796">
        <ele>852</ele>
        <time>2016-08-12T10:46:42+02:00</time>
      </trkpt>
      <trkpt lat="48.50917" lon="7.15806">
        <ele>855</ele>
        <time>2016-08-12T10:46:59+02:00</time>
      </trkpt>
      <trkpt lat="48.50905" lon="7.15821">
        <ele>857</ele>
        <time>2016-08-12T10:47:18+02:00</time>
      </trkpt>
      <trkpt lat="48.50893" lon="7.15842">
        <ele>860</ele>
        <time>2016-08-12T10:47:35+02:00</time>
      </trkpt>
      <trkpt lat="48.50882" lon="7.15865">
        <ele>863</ele>
        <time>2016-08-12T10:47:54+02:00</time>
      </trkpt>
      <trkpt lat="48.50875" lon="7.15874">
        <ele>864</ele>
        <time>2016-08-12T10:48:14+02:00</time>
      </trkpt>
      <trkpt lat="48.50868" lon="7.15894">
        <ele>866</ele>
        <time>2016-08-12T10:48:30+02:00</time>
      </trkpt>
      <trkpt lat="48.50862" lon="7.1592">
        <ele>869</ele>
        <time>2016-08-12T10:48:48+02:00</time>
      </trkpt>
      <trkpt lat="48.50854" lon="7.15949">
        <ele>871</ele>
        <time>2016-08-12T10:49:07+02:00</time>
      </trkpt>
      <trkpt lat="48.50849" lon="7.15978">
        <ele>874</ele>
        <time>2016-08-12T10:49:24+02:00</time>
      </trkpt>
      <trkpt lat="48.50849" lon="7.15994">
        <ele>876</ele>
        <time>2016-08-12T10:49:41+02:00</time>
      </trkpt>
      <trkpt lat="48.50856" lon="7.16023">
        <ele>881</ele>
        <time>2016-08-12T10:49:59+02:00</time>
      </trkpt>
      <trkpt lat="48.50851" lon="7.16045">
        <ele>881</ele>
        <time>2016-08-12T10:50:15+02:00</time>
      </trkpt>
      <trkpt lat="48.50847" lon="7.16097">
        <ele>881</ele>
        <time>2016-08-12T10:50:28+02:00</time>
      </trkpt>
      <trkpt lat="48.50849" lon="7.16112">
        <ele>883</ele>
        <time>2016-08-12T10:50:49+02:00</time>
      </trkpt>
      <trkpt lat="48.50857" lon="7.16138">
        <ele>887</ele>
        <time>2016-08-12T10:51:07+02:00</time>
      </trkpt>
      <trkpt lat="48.50872" lon="7.16174">
        <ele>894</ele>
        <time>2016-08-12T10:51:28+02:00</time>
      </trkpt>
      <trkpt lat="48.50881" lon="7.16192">
        <ele>896</ele>
        <time>2016-08-12T10:51:46+02:00</time>
      </trkpt>
      <trkpt lat="48.50886" lon="7.16214">
        <ele>896</ele>
        <time>2016-08-12T10:52:04+02:00</time>
      </trkpt>
      <trkpt lat="48.509" lon="7.1624">
        <ele>899</ele>
        <time>2016-08-12T10:52:20+02:00</time>
      </trkpt>
      <trkpt lat="48.5091" lon="7.16258">
        <ele>900</ele>
        <time>2016-08-12T10:52:39+02:00</time>
      </trkpt>
      <trkpt lat="48.50927" lon="7.16276">
        <ele>904</ele>
        <time>2016-08-12T10:52:57+02:00</time>
      </trkpt>
      <trkpt lat="48.50939" lon="7.16294">
        <ele>906</ele>
        <time>2016-08-12T10:53:14+02:00</time>
      </trkpt>
      <trkpt lat="48.50951" lon="7.16316">
        <ele>906</ele>
        <time>2016-08-12T10:53:34+02:00</time>
      </trkpt>
      <trkpt lat="48.50971" lon="7.16329">
        <ele>911</ele>
        <time>2016-08-12T10:53:55+02:00</time>
      </trkpt>
      <trkpt lat="48.5098" lon="7.16336">
        <ele>913</ele>
      </trkpt>
      <trkpt lat="48.50991" lon="7.16336">
        <ele>918</ele>
        <time>2016-08-12T10:54:23+02:00</time>
      </trkpt>
      <trkpt lat="48.51005" lon="7.16338">
        <ele>922</ele>
        <time>2016-08-12T10:54:42+02:00</time>
      </trkpt>
      <trkpt lat="48.5102" lon="7.16347">
        <ele>924</ele>
        <time>2016-08-12T10:55:03+02:00</time>
      </trkpt>
      <trkpt lat="48.51031" lon="7.16351">
        <ele>926</ele>
        <time>2016-08-12T10:55:07+02:00</time>
      </trkpt>
      <trkpt lat="48.51052" lon="7.16353">
        <ele>931</ele>
        <time>2016-08-12T10:55:24+02:00</time>
      </trkpt>
      <trkpt lat="48.51061" lon="7.1635">
        <ele>934</ele>
        <time>2016-08-12T10:56:01+02:00</time>
      </trkpt>
      <trkpt lat="48.51076" lon="7.16354">
        <ele>938</ele>
      </trkpt>
      <trkpt lat="48.51088" lon="7.16358">
        <ele>940</ele>
        <time>2016-08-12T10:56:57+02:00</time>
      </trkpt>
      <trkpt lat="48.51085" lon="7.16341">
        <ele>943</ele>
        <time>2016-08-12T10:57:17+02:00</time>
      </trkpt>
      <trkpt lat="48.51082" lon="7.16325">
        <ele>945</ele>
        <time>2016-08-12T10:57:35+02:00</time>
      </trkpt>
      <trkpt lat="48.51071" lon="7.16302">
        <ele>946</ele>
        <time>2016-08-12T10:57:54+02:00</time>
      </trkpt>
      <trkpt lat="48.51061" lon="7.16284">
        <ele>948</ele>
        <time>2016-08-12T10:58:07+02:00</time>
      </trkpt>
      <trkpt lat="48.51047" lon="7.16261">
        <ele>950</ele>
        <time>2016-08-12T10:58:26+02:00</time>
      </trkpt>
      <trkpt lat="48.51037" lon="7.16241">
        <ele>951</ele>
        <time>2016-08-12T10:58:43+02:00</time>
      </trkpt>
      <trkpt lat="48.51029" lon="7.16228">
        <ele>952</ele>
      </trkpt>
      <trkpt lat="48.51025" lon="7.16209">
        <ele>954</ele>
      </trkpt>
      <trkpt lat="48.51033" lon="7.162">
        <ele>955</ele>
      </trkpt>
      <trkpt lat="48.51043" lon="7.16206">
        <ele>955</ele>
        <time>2016-08-12T10:59:35+02:00</time>
      </trkpt>
      <trkpt lat="48.51061" lon="7.16211">
        <ele>955</ele>
        <time>2016-08-12T11:01:31+02:00</time>
      </trkpt>
      <trkpt lat="48.51073" lon="7.16223">
        <ele>956</ele>
        <time>2016-08-12T11:02:07+02:00</time>
      </trkpt>
      <trkpt lat="48.51079" lon="7.16228">
        <ele>957</ele>
        <time>2016-08-12T11:02:27+02:00</time>
      </trkpt>
      <trkpt lat="48.51085" lon="7.16233">
        <ele>957</ele>
        <time>2016-08-12T11:04:10+02:00</time>
      </trkpt>
      <trkpt lat="48.51098" lon="7.16247">
        <ele>958</ele>
        <time>2016-08-12T11:04:22+02:00</time>
      </trkpt>
      <trkpt lat="48.51116" lon="7.16262">
        <ele>958</ele>
        <time>2016-08-12T11:04:40+02:00</time>
      </trkpt>
      <trkpt lat="48.51133" lon="7.16277">
        <ele>960</ele>
        <time>2016-08-12T11:04:57+02:00</time>
      </trkpt>
      <trkpt lat="48.51144" lon="7.16293">
        <ele>962</ele>
        <time>2016-08-12T11:05:13+02:00</time>
      </trkpt>
      <trkpt lat="48.51162" lon="7.1631">
        <ele>966</ele>
        <time>2016-08-12T11:05:35+02:00</time>
      </trkpt>
      <trkpt lat="48.51181" lon="7.16326">
        <ele>970</ele>
        <time>2016-08-12T11:05:58+02:00</time>
      </trkpt>
      <trkpt lat="48.51191" lon="7.16346">
        <ele>971</ele>
        <time>2016-08-12T11:06:35+02:00</time>
      </trkpt>
      <trkpt lat="48.51209" lon="7.16364">
        <ele>974</ele>
        <time>2016-08-12T11:07:10+02:00</time>
      </trkpt>
      <trkpt lat="48.51221" lon="7.16383">
        <ele>978</ele>
        <time>2016-08-12T11:07:42+02:00</time>
      </trkpt>
      <trkpt lat="48.51239" lon="7.16391">
        <ele>982</ele>
        <time>2016-08-12T11:08:14+02:00</time>
      </trkpt>
      <trkpt lat="48.51253" lon="7.16413">
        <ele>987</ele>
        <time>2016-08-12T11:08:47+02:00</time>
      </trkpt>
      <trkpt lat="48.51262" lon="7.16433">
        <ele>986</ele>
        <time>2016-08-12T11:09:18+02:00</time>
      </trkpt>
      <trkpt lat="48.51267" lon="7.16455">
        <ele>986</ele>
        <time>2016-08-12T11:13:23+02:00</time>
      </trkpt>
      <trkpt lat="48.51269" lon="7.16473">
        <ele>986</ele>
        <time>2016-08-12T11:13:32+02:00</time>
      </trkpt>
      <trkpt lat="48.51269" lon="7.16499">
        <ele>988</ele>
        <time>2016-08-12T11:13:49+02:00</time>
      </trkpt>
      <trkpt lat="48.51274" lon="7.16531">
        <ele>982</ele>
        <time>2016-08-12T11:14:05+02:00</time>
      </trkpt>
      <trkpt lat="48.51278" lon="7.16546">
        <ele>980</ele>
      </trkpt>
      <trkpt lat="48.51285" lon="7.16554">
        <ele>978</ele>
        <time>2016-08-12T11:14:55+02:00</time>
      </trkpt>
      <trkpt lat="48.51281" lon="7.1658">
        <ele>975</ele>
      </trkpt>
      <trkpt lat="48.51294" lon="7.16579">
        <ele>974</ele>
      </trkpt>
      <trkpt lat="48.5131" lon="7.16571">
        <ele>973</ele>
        <time>2016-08-12T11:16:15+02:00</time>
      </trkpt>
      <trkpt lat="48.51303" lon="7.16595">
        <ele>969</ele>
      </trkpt>
      <trkpt lat="48.51289" lon="7.16607">
        <ele>966</ele>
      </trkpt>
      <trkpt lat="48.51295" lon="7.16611">
        <ele>964</ele>
      </trkpt>
      <trkpt lat="48.51314" lon="7.16602">
        <ele>965</ele>
        <time>2016-08-12T11:19:16+02:00</time>
      </trkpt>
      <trkpt lat="48.51327" lon="7.16594">
        <ele>967</ele>
        <time>2016-08-12T11:19:33+02:00</time>
      </trkpt>
      <trkpt lat="48.51338" lon="7.16589">
        <ele>966</ele>
        <time>2016-08-12T11:19:48+02:00</time>
      </trkpt>
      <trkpt lat="48.51352" lon="7.16572">
        <ele>961</ele>
        <time>2016-08-12T11:20:05+02:00</time>
      </trkpt>
      <trkpt lat="48.51357" lon="7.16543">
        <ele>959</ele>
        <time>2016-08-12T11:20:21+02:00</time>
      </trkpt>
      <trkpt lat="48.5136" lon="7.16516">
        <ele>958</ele>
        <time>2016-08-12T11:20:37+02:00</time>
      </trkpt>
      <trkpt lat="48.51359" lon="7.16479">
        <ele>956</ele>
      </trkpt>
      <trkpt lat="48.51369" lon="7.16498">
        <ele>953</ele>
      </trkpt>
      <trkpt lat="48.51379" lon="7.16525">
        <ele>948</ele>
        <time>2016-08-12T11:21:52+02:00</time>
      </trkpt>
      <trkpt lat="48.51381" lon="7.16545">
        <ele>946</ele>
        <time>2016-08-12T11:22:09+02:00</time>
      </trkpt>
      <trkpt lat="48.51387" lon="7.1658">
        <ele>942</ele>
      </trkpt>
      <trkpt lat="48.51396" lon="7.16565">
        <ele>938</ele>
      </trkpt>
      <trkpt lat="48.51399" lon="7.16549">
        <ele>936</ele>
        <time>2016-08-12T11:23:39+02:00</time>
      </trkpt>
      <trkpt lat="48.51403" lon="7.16531">
        <ele>934</ele>
        <time>2016-08-12T11:23:56+02:00</time>
      </trkpt>
      <trkpt lat="48.51404" lon="7.16498">
        <ele>934</ele>
      </trkpt>
      <trkpt lat="48.51406" lon="7.16472">
        <ele>930</ele>
      </trkpt>
      <trkpt lat="48.51416" lon="7.16509">
        <ele>928</ele>
      </trkpt>
      <trkpt lat="48.51426" lon="7.16551">
        <ele>923</ele>
        <time>2016-08-12T11:25:43+02:00</time>
      </trkpt>
      <trkpt lat="48.51433" lon="7.16536">
        <ele>920</ele>
      </trkpt>
      <trkpt lat="48.51436" lon="7.16498">
        <ele>919</ele>
        <time>2016-08-12T11:27:02+02:00</time>
      </trkpt>
      <trkpt lat="48.51446" lon="7.16536">
        <ele>915</ele>
        <time>2016-08-12T11:27:38+02:00</time>
      </trkpt>
      <trkpt lat="48.51445" lon="7.16557">
        <ele>916</ele>
        <time>2016-08-12T11:27:56+02:00</time>
      </trkpt>
      <trkpt lat="48.5145" lon="7.16582">
        <ele>914</ele>
        <time>2016-08-12T11:28:47+02:00</time>
      </trkpt>
      <trkpt lat="48.51456" lon="7.16599">
        <ele>910</ele>
        <time>2016-08-12T11:29:04+02:00</time>
      </trkpt>
      <trkpt lat="48.51459" lon="7.16619">
        <ele>907</ele>
        <time>2016-08-12T11:29:20+02:00</time>
      </trkpt>
      <trkpt lat="48.51457" lon="7.16631">
        <ele>906</ele>
        <time>2016-08-12T11:29:41+02:00</time>
      </trkpt>
      <trkpt lat="48.51445" lon="7.16651">
        <ele>908</ele>
      </trkpt>
      <trkpt lat="48.51433" lon="7.1667">
        <ele>909</ele>
      </trkpt>
      <trkpt lat="48.51436" lon="7.16681">
        <ele>906</ele>
      </trkpt>
      <trkpt lat="48.51447" lon="7.16679">
        <ele>903</ele>
        <time>2016-08-12T11:30:12+02:00</time>
      </trkpt>
      <trkpt lat="48.51458" lon="7.16681">
        <ele>899</ele>
      </trkpt>
      <trkpt lat="48.51444" lon="7.16709">
        <ele>896</ele>
        <time>2016-08-12T11:31:22+02:00</time>
      </trkpt>
      <trkpt lat="48.51423" lon="7.16729">
        <ele>897</ele>
        <time>2016-08-12T11:31:37+02:00</time>
      </trkpt>
      <trkpt lat="48.51404" lon="7.16752">
        <ele>894</ele>
        <time>2016-08-12T11:31:53+02:00</time>
      </trkpt>
      <trkpt lat="48.51429" lon="7.16753">
        <ele>889</ele>
        <time>2016-08-12T11:32:35+02:00</time>
      </trkpt>
      <trkpt lat="48.51435" lon="7.16756">
        <ele>887</ele>
        <time>2016-08-12T11:32:41+02:00</time>
      </trkpt>
      <trkpt lat="48.51454" lon="7.16753">
        <ele>884</ele>
        <time>2016-08-12T11:32:58+02:00</time>
      </trkpt>
      <trkpt lat="48.51467" lon="7.16758">
        <ele>880</ele>
        <time>2016-08-12T11:33:01+02:00</time>
      </trkpt>
      <trkpt lat="48.51486" lon="7.1677">
        <ele>873</ele>
        <time>2016-08-12T11:33:20+02:00</time>
      </trkpt>
      <trkpt lat="48.51507" lon="7.16756">
        <ele>871</ele>
        <time>2016-08-12T11:33:36+02:00</time>
      </trkpt>
      <trkpt lat="48.51512" lon="7.16748">
        <ele>871</ele>
        <time>2016-08-12T11:34:33+02:00</time>
      </trkpt>
      <trkpt lat="48.51523" lon="7.16721">
        <ele>871</ele>
        <time>2016-08-12T11:34:50+02:00</time>
      </trkpt>
      <trkpt lat="48.5153" lon="7.1671">
        <ele>871</ele>
        <time>2016-08-12T11:34:57+02:00</time>
      </trkpt>
      <trkpt lat="48.51567" lon="7.16632">
        <ele>863</ele>
        <time>2016-08-12T11:35:13+02:00</time>
      </trkpt>
      <trkpt lat="48.51563" lon="7.16683">
        <ele>862</ele>
        <time>2016-08-12T11:36:01+02:00</time>
      </trkpt>
      <trkpt lat="48.5156" lon="7.16718">
        <ele>859</ele>
        <time>2016-08-12T11:36:15+02:00</time>
      </trkpt>
      <trkpt lat="48.51555" lon="7.16755">
        <ele>857</ele>
        <time>2016-08-12T11:36:28+02:00</time>
      </trkpt>
      <trkpt lat="48.51559" lon="7.16788">
        <ele>852</ele>
        <time>2016-08-12T11:36:44+02:00</time>
      </trkpt>
      <trkpt lat="48.51559" lon="7.16823">
        <ele>848</ele>
        <time>2016-08-12T11:36:59+02:00</time>
      </trkpt>
      <trkpt lat="48.51559" lon="7.16861">
        <ele>843</ele>
        <time>2016-08-12T11:37:15+02:00</time>
      </trkpt>
      <trkpt lat="48.51566" lon="7.16891">
        <ele>839</ele>
        <time>2016-08-12T11:37:33+02:00</time>
      </trkpt>
      <trkpt lat="48.51573" lon="7.16921">
        <ele>836</ele>
        <time>2016-08-12T11:37:51+02:00</time>
      </trkpt>
      <trkpt lat="48.51571" lon="7.16952">
        <ele>833</ele>
        <time>2016-08-12T11:38:05+02:00</time>
      </trkpt>
      <trkpt lat="48.51572" lon="7.16978">
        <ele>830</ele>
        <time>2016-08-12T11:38:20+02:00</time>
      </trkpt>
      <trkpt lat="48.51576" lon="7.16988">
        <ele>830</ele>
        <time>2016-08-12T11:38:29+02:00</time>
      </trkpt>
      <trkpt lat="48.51587" lon="7.17025">
        <ele>830</ele>
        <time>2016-08-12T11:38:47+02:00</time>
      </trkpt>
      <trkpt lat="48.51586" lon="7.17068">
        <ele>831</ele>
        <time>2016-08-12T11:39:09+02:00</time>
      </trkpt>
      <trkpt lat="48.51581" lon="7.17097">
        <ele>832</ele>
        <time>2016-08-12T11:39:24+02:00</time>
      </trkpt>
      <trkpt lat="48.51574" lon="7.17135">
        <ele>835</ele>
        <time>2016-08-12T11:39:42+02:00</time>
      </trkpt>
      <trkpt lat="48.51572" lon="7.17167">
        <ele>839</ele>
        <time>2016-08-12T11:39:59+02:00</time>
      </trkpt>
      <trkpt lat="48.51571" lon="7.17205">
        <ele>841</ele>
        <time>2016-08-12T11:40:17+02:00</time>
      </trkpt>
      <trkpt lat="48.51566" lon="7.17211">
        <ele>841</ele>
        <time>2016-08-12T11:40:20+02:00</time>
      </trkpt>
      <trkpt lat="48.51554" lon="7.17237">
        <ele>840</ele>
        <time>2016-08-12T11:40:37+02:00</time>
      </trkpt>
      <trkpt lat="48.51539" lon="7.17263">
        <ele>839</ele>
        <time>2016-08-12T11:40:51+02:00</time>
      </trkpt>
      <trkpt lat="48.51524" lon="7.17282">
        <ele>839</ele>
        <time>2016-08-12T11:41:06+02:00</time>
      </trkpt>
      <trkpt lat="48.51513" lon="7.17303">
        <ele>840</ele>
        <time>2016-08-12T11:41:56+02:00</time>
      </trkpt>
      <trkpt lat="48.5153" lon="7.17296">
        <ele>843</ele>
        <time>2016-08-12T11:42:18+02:00</time>
      </trkpt>
      <trkpt lat="48.51545" lon="7.17293">
        <ele>846</ele>
        <time>2016-08-12T11:42:38+02:00</time>
      </trkpt>
      <trkpt lat="48.51562" lon="7.17288">
        <ele>849</ele>
        <time>2016-08-12T11:42:57+02:00</time>
      </trkpt>
      <trkpt lat="48.51577" lon="7.17284">
        <ele>852</ele>
        <time>2016-08-12T11:43:16+02:00</time>
      </trkpt>
      <trkpt lat="48.51585" lon="7.1728">
        <ele>853</ele>
        <time>2016-08-12T11:43:32+02:00</time>
      </trkpt>
      <trkpt lat="48.51597" lon="7.17265">
        <ele>852</ele>
        <time>2016-08-12T11:43:47+02:00</time>
      </trkpt>
      <trkpt lat="48.51607" lon="7.17255">
        <ele>852</ele>
        <time>2016-08-12T11:44:08+02:00</time>
      </trkpt>
      <trkpt lat="48.51628" lon="7.1725">
        <ele>854</ele>
        <time>2016-08-12T11:44:26+02:00</time>
      </trkpt>
      <trkpt lat="48.51644" lon="7.17256">
        <ele>857</ele>
        <time>2016-08-12T11:44:41+02:00</time>
      </trkpt>
      <trkpt lat="48.51661" lon="7.17266">
        <ele>862</ele>
        <time>2016-08-12T11:44:58+02:00</time>
      </trkpt>
      <trkpt lat="48.51673" lon="7.17273">
        <ele>864</ele>
        <time>2016-08-12T11:45:11+02:00</time>
      </trkpt>
      <trkpt lat="48.51689" lon="7.17282">
        <ele>866</ele>
        <time>2016-08-12T11:45:26+02:00</time>
      </trkpt>
      <trkpt lat="48.51706" lon="7.17295">
        <ele>869</ele>
        <time>2016-08-12T11:45:47+02:00</time>
      </trkpt>
      <trkpt lat="48.51725" lon="7.17307">
        <ele>871</ele>
        <time>2016-08-12T11:46:10+02:00</time>
      </trkpt>
      <trkpt lat="48.5174" lon="7.17318">
        <ele>873</ele>
        <time>2016-08-12T11:46:27+02:00</time>
      </trkpt>
      <trkpt lat="48.51749" lon="7.17329">
        <ele>875</ele>
        <time>2016-08-12T11:46:45+02:00</time>
      </trkpt>
      <trkpt lat="48.51759" lon="7.17341">
        <ele>878</ele>
        <time>2016-08-12T11:47:00+02:00</time>
      </trkpt>
      <trkpt lat="48.51772" lon="7.1736">
        <ele>883</ele>
        <time>2016-08-12T11:47:19+02:00</time>
      </trkpt>
      <trkpt lat="48.51782" lon="7.17368">
        <ele>885</ele>
        <time>2016-08-12T11:47:33+02:00</time>
      </trkpt>
      <trkpt lat="48.51799" lon="7.17378">
        <ele>887</ele>
        <time>2016-08-12T11:47:55+02:00</time>
      </trkpt>
      <trkpt lat="48.51813" lon="7.17383">
        <ele>889</ele>
        <time>2016-08-12T11:48:14+02:00</time>
      </trkpt>
      <trkpt lat="48.51827" lon="7.17388">
        <ele>890</ele>
        <time>2016-08-12T11:48:33+02:00</time>
      </trkpt>
      <trkpt lat="48.51842" lon="7.17402">
        <ele>892</ele>
        <time>2016-08-12T11:48:48+02:00</time>
      </trkpt>
      <trkpt lat="48.51852" lon="7.17413">
        <ele>894</ele>
        <time>2016-08-12T11:49:07+02:00</time>
      </trkpt>
      <trkpt lat="48.51841" lon="7.17435">
        <ele>897</ele>
        <time>2016-08-12T11:49:23+02:00</time>
      </trkpt>
      <trkpt lat="48.51829" lon="7.17455">
        <ele>901</ele>
        <time>2016-08-12T11:49:39+02:00</time>
      </trkpt>
      <trkpt lat="48.51822" lon="7.17471">
        <ele>903</ele>
        <time>2016-08-12T11:49:54+02:00</time>
      </trkpt>
      <trkpt lat="48.51812" lon="7.17481">
        <ele>905</ele>
        <time>2016-08-12T11:50:10+02:00</time>
      </trkpt>
      <trkpt lat="48.51799" lon="7.17496">
        <ele>908</ele>
        <time>2016-08-12T11:50:28+02:00</time>
      </trkpt>
      <trkpt lat="48.51786" lon="7.17511">
        <ele>910</ele>
        <time>2016-08-12T11:50:42+02:00</time>
      </trkpt>
      <trkpt lat="48.51766" lon="7.1752">
        <ele>912</ele>
        <time>2016-08-12T11:50:59+02:00</time>
      </trkpt>
      <trkpt lat="48.51755" lon="7.1752">
        <ele>913</ele>
        <time>2016-08-12T11:51:13+02:00</time>
      </trkpt>
      <trkpt lat="48.51733" lon="7.17521">
        <ele>918</ele>
        <time>2016-08-12T11:51:36+02:00</time>
      </trkpt>
      <trkpt lat="48.51718" lon="7.17518">
        <ele>921</ele>
        <time>2016-08-12T11:51:52+02:00</time>
      </trkpt>
      <trkpt lat="48.51704" lon="7.17515">
        <ele>925</ele>
        <time>2016-08-12T11:52:09+02:00</time>
      </trkpt>
      <trkpt lat="48.51682" lon="7.17518">
        <ele>930</ele>
        <time>2016-08-12T11:53:29+02:00</time>
      </trkpt>
      <trkpt lat="48.51671" lon="7.17517">
        <ele>933</ele>
        <time>2016-08-12T11:53:40+02:00</time>
      </trkpt>
      <trkpt lat="48.51654" lon="7.17526">
        <ele>933</ele>
        <time>2016-08-12T11:54:05+02:00</time>
      </trkpt>
      <trkpt lat="48.51634" lon="7.17536">
        <ele>931</ele>
        <time>2016-08-12T11:54:40+02:00</time>
      </trkpt>
      <trkpt lat="48.51618" lon="7.17548">
        <ele>931</ele>
        <time>2016-08-12T11:55:38+02:00</time>
      </trkpt>
      <trkpt lat="48.51614" lon="7.17577">
        <ele>934</ele>
        <time>2016-08-12T11:58:03+02:00</time>
      </trkpt>
      <trkpt lat="48.51614" lon="7.17592">
        <ele>932</ele>
        <time>2016-08-12T11:58:37+02:00</time>
      </trkpt>
      <trkpt lat="48.51614" lon="7.17567">
        <ele>933</ele>
        <time>2016-08-12T12:01:11+02:00</time>
      </trkpt>
      <trkpt lat="48.51617" lon="7.17551">
        <ele>931</ele>
        <time>2016-08-12T12:01:59+02:00</time>
      </trkpt>
      <trkpt lat="48.51633" lon="7.17537">
        <ele>931</ele>
        <time>2016-08-12T12:02:17+02:00</time>
      </trkpt>
      <trkpt lat="48.51645" lon="7.1753">
        <ele>932</ele>
        <time>2016-08-12T12:02:31+02:00</time>
      </trkpt>
      <trkpt lat="48.51665" lon="7.17519">
        <ele>934</ele>
        <time>2016-08-12T12:02:56+02:00</time>
      </trkpt>
      <trkpt lat="48.51679" lon="7.17517">
        <ele>931</ele>
        <time>2016-08-12T12:03:11+02:00</time>
      </trkpt>
      <trkpt lat="48.51695" lon="7.17517">
        <ele>927</ele>
        <time>2016-08-12T12:03:33+02:00</time>
      </trkpt>
      <trkpt lat="48.51713" lon="7.17518">
        <ele>923</ele>
        <time>2016-08-12T12:03:50+02:00</time>
      </trkpt>
      <trkpt lat="48.51728" lon="7.17522">
        <ele>919</ele>
        <time>2016-08-12T12:04:05+02:00</time>
      </trkpt>
      <trkpt lat="48.51749" lon="7.17521">
        <ele>914</ele>
        <time>2016-08-12T12:04:24+02:00</time>
      </trkpt>
      <trkpt lat="48.51769" lon="7.17517">
        <ele>911</ele>
        <time>2016-08-12T12:04:42+02:00</time>
      </trkpt>
      <trkpt lat="48.51789" lon="7.17512">
        <ele>909</ele>
        <time>2016-08-12T12:05:00+02:00</time>
      </trkpt>
      <trkpt lat="48.51797" lon="7.175">
        <ele>909</ele>
        <time>2016-08-12T12:05:14+02:00</time>
      </trkpt>
      <trkpt lat="48.5181" lon="7.17488">
        <ele>906</ele>
        <time>2016-08-12T12:05:30+02:00</time>
      </trkpt>
      <trkpt lat="48.5182" lon="7.17474">
        <ele>904</ele>
        <time>2016-08-12T12:05:46+02:00</time>
      </trkpt>
      <trkpt lat="48.51833" lon="7.17451">
        <ele>900</ele>
        <time>2016-08-12T12:06:02+02:00</time>
      </trkpt>
      <trkpt lat="48.51838" lon="7.17441">
        <ele>898</ele>
        <time>2016-08-12T12:06:13+02:00</time>
      </trkpt>
      <trkpt lat="48.51853" lon="7.17413">
        <ele>894</ele>
        <time>2016-08-12T12:06:30+02:00</time>
      </trkpt>
      <trkpt lat="48.51868" lon="7.1741">
        <ele>892</ele>
        <time>2016-08-12T12:06:45+02:00</time>
      </trkpt>
      <trkpt lat="48.5203" lon="7.17318">
        <ele>887</ele>
        <time>2016-08-12T12:07:27+02:00</time>
      </trkpt>
      <trkpt lat="48.51976" lon="7.17404">
        <ele>883</ele>
      </trkpt>
      <trkpt lat="48.51936" lon="7.17456">
        <ele>882</ele>
        <time>2016-08-12T12:10:38+02:00</time>
      </trkpt>
      <trkpt lat="48.51879" lon="7.17601">
        <ele>880</ele>
        <time>2016-08-12T12:11:07+02:00</time>
      </trkpt>
      <trkpt lat="48.51848" lon="7.17649">
        <ele>878</ele>
        <time>2016-08-12T12:12:10+02:00</time>
      </trkpt>
      <trkpt lat="48.51838" lon="7.17671">
        <ele>876</ele>
        <time>2016-08-12T12:12:24+02:00</time>
      </trkpt>
      <trkpt lat="48.51816" lon="7.17691">
        <ele>874</ele>
        <time>2016-08-12T12:12:42+02:00</time>
      </trkpt>
      <trkpt lat="48.51795" lon="7.17713">
        <ele>871</ele>
        <time>2016-08-12T12:13:00+02:00</time>
      </trkpt>
      <trkpt lat="48.51776" lon="7.1772">
        <ele>871</ele>
        <time>2016-08-12T12:13:14+02:00</time>
      </trkpt>
      <trkpt lat="48.51754" lon="7.17733">
        <ele>870</ele>
        <time>2016-08-12T12:13:29+02:00</time>
      </trkpt>
      <trkpt lat="48.51742" lon="7.17744">
        <ele>868</ele>
        <time>2016-08-12T12:13:38+02:00</time>
      </trkpt>
      <trkpt lat="48.51719" lon="7.1776">
        <ele>863</ele>
        <time>2016-08-12T12:13:57+02:00</time>
      </trkpt>
      <trkpt lat="48.51703" lon="7.1777">
        <ele>860</ele>
        <time>2016-08-12T12:14:13+02:00</time>
      </trkpt>
      <trkpt lat="48.5169" lon="7.17785">
        <ele>856</ele>
        <time>2016-08-12T12:14:37+02:00</time>
      </trkpt>
      <trkpt lat="48.51683" lon="7.1779">
        <ele>855</ele>
        <time>2016-08-12T12:14:45+02:00</time>
      </trkpt>
      <trkpt lat="48.51667" lon="7.17808">
        <ele>850</ele>
        <time>2016-08-12T12:15:01+02:00</time>
      </trkpt>
      <trkpt lat="48.51655" lon="7.1782">
        <ele>847</ele>
        <time>2016-08-12T12:15:15+02:00</time>
      </trkpt>
      <trkpt lat="48.51636" lon="7.17835">
        <ele>845</ele>
        <time>2016-08-12T12:15:31+02:00</time>
      </trkpt>
      <trkpt lat="48.51617" lon="7.17848">
        <ele>843</ele>
        <time>2016-08-12T12:15:51+02:00</time>
      </trkpt>
      <trkpt lat="48.51601" lon="7.17861">
        <ele>840</ele>
        <time>2016-08-12T12:16:07+02:00</time>
      </trkpt>
      <trkpt lat="48.51587" lon="7.1787">
        <ele>839</ele>
        <time>2016-08-12T12:16:25+02:00</time>
      </trkpt>
      <trkpt lat="48.51573" lon="7.1788">
        <ele>835</ele>
        <time>2016-08-12T12:16:41+02:00</time>
      </trkpt>
      <trkpt lat="48.51559" lon="7.17889">
        <ele>831</ele>
        <time>2016-08-12T12:17:00+02:00</time>
      </trkpt>
      <trkpt lat="48.51548" lon="7.17897">
        <ele>828</ele>
        <time>2016-08-12T12:17:16+02:00</time>
      </trkpt>
      <trkpt lat="48.5153" lon="7.1791">
        <ele>824</ele>
        <time>2016-08-12T12:17:36+02:00</time>
      </trkpt>
      <trkpt lat="48.51506" lon="7.17922">
        <ele>820</ele>
        <time>2016-08-12T12:17:56+02:00</time>
      </trkpt>
      <trkpt lat="48.51483" lon="7.17935">
        <ele>816</ele>
        <time>2016-08-12T12:18:13+02:00</time>
      </trkpt>
      <trkpt lat="48.51464" lon="7.17944">
        <ele>813</ele>
        <time>2016-08-12T12:18:31+02:00</time>
      </trkpt>
      <trkpt lat="48.51446" lon="7.17951">
        <ele>811</ele>
        <time>2016-08-12T12:18:55+02:00</time>
      </trkpt>
      <trkpt lat="48.51428" lon="7.17959">
        <ele>809</ele>
        <time>2016-08-12T12:19:15+02:00</time>
      </trkpt>
      <trkpt lat="48.5141" lon="7.17976">
        <ele>805</ele>
        <time>2016-08-12T12:19:28+02:00</time>
      </trkpt>
      <trkpt lat="48.51395" lon="7.1799">
        <ele>803</ele>
        <time>2016-08-12T12:20:59+02:00</time>
      </trkpt>
      <trkpt lat="48.51377" lon="7.18008">
        <ele>801</ele>
        <time>2016-08-12T12:21:18+02:00</time>
      </trkpt>
      <trkpt lat="48.51371" lon="7.18015">
        <ele>801</ele>
        <time>2016-08-12T12:21:25+02:00</time>
      </trkpt>
      <trkpt lat="48.5137" lon="7.17993">
        <ele>802</ele>
        <time>2016-08-12T12:21:42+02:00</time>
      </trkpt>
      <trkpt lat="48.51369" lon="7.17964">
        <ele>805</ele>
        <time>2016-08-12T12:22:00+02:00</time>
      </trkpt>
      <trkpt lat="48.51364" lon="7.1794">
        <ele>807</ele>
        <time>2016-08-12T12:22:13+02:00</time>
      </trkpt>
      <trkpt lat="48.51361" lon="7.17927">
        <ele>807</ele>
        <time>2016-08-12T12:23:06+02:00</time>
      </trkpt>
      <trkpt lat="48.51355" lon="7.1791">
        <ele>808</ele>
        <time>2016-08-12T12:23:28+02:00</time>
      </trkpt>
      <trkpt lat="48.5135" lon="7.17896">
        <ele>808</ele>
        <time>2016-08-12T12:24:04+02:00</time>
      </trkpt>
      <trkpt lat="48.51348" lon="7.17886">
        <ele>808</ele>
        <time>2016-08-12T12:25:36+02:00</time>
      </trkpt>
      <trkpt lat="48.51344" lon="7.17872">
        <ele>809</ele>
        <time>2016-08-12T12:25:48+02:00</time>
      </trkpt>
      <trkpt lat="48.5134" lon="7.17861">
        <ele>809</ele>
        <time>2016-08-12T12:25:51+02:00</time>
      </trkpt>
      <trkpt lat="48.51333" lon="7.17831">
        <ele>809</ele>
        <time>2016-08-12T12:26:09+02:00</time>
      </trkpt>
      <trkpt lat="48.51328" lon="7.17783">
        <ele>812</ele>
        <time>2016-08-12T12:26:29+02:00</time>
      </trkpt>
      <trkpt lat="48.51329" lon="7.17743">
        <ele>816</ele>
        <time>2016-08-12T12:26:51+02:00</time>
      </trkpt>
      <trkpt lat="48.51335" lon="7.17694">
        <ele>821</ele>
        <time>2016-08-12T12:27:12+02:00</time>
      </trkpt>
      <trkpt lat="48.5134" lon="7.17655">
        <ele>823</ele>
        <time>2016-08-12T12:27:30+02:00</time>
      </trkpt>
      <trkpt lat="48.51346" lon="7.17622">
        <ele>824</ele>
        <time>2016-08-12T12:27:47+02:00</time>
      </trkpt>
      <trkpt lat="48.51351" lon="7.17585">
        <ele>824</ele>
        <time>2016-08-12T12:28:05+02:00</time>
      </trkpt>
      <trkpt lat="48.5136" lon="7.17546">
        <ele>825</ele>
        <time>2016-08-12T12:28:27+02:00</time>
      </trkpt>
      <trkpt lat="48.51369" lon="7.17509">
        <ele>827</ele>
        <time>2016-08-12T12:28:48+02:00</time>
      </trkpt>
      <trkpt lat="48.51378" lon="7.17476">
        <ele>829</ele>
        <time>2016-08-12T12:29:07+02:00</time>
      </trkpt>
      <trkpt lat="48.51392" lon="7.17439">
        <ele>832</ele>
        <time>2016-08-12T12:29:25+02:00</time>
      </trkpt>
      <trkpt lat="48.5141" lon="7.1741">
        <ele>835</ele>
        <time>2016-08-12T12:29:42+02:00</time>
      </trkpt>
      <trkpt lat="48.51431" lon="7.17386">
        <ele>837</ele>
        <time>2016-08-12T12:30:01+02:00</time>
      </trkpt>
      <trkpt lat="48.51458" lon="7.17359">
        <ele>838</ele>
        <time>2016-08-12T12:30:22+02:00</time>
      </trkpt>
      <trkpt lat="48.51477" lon="7.1734">
        <ele>838</ele>
        <time>2016-08-12T12:30:40+02:00</time>
      </trkpt>
      <trkpt lat="48.51496" lon="7.17318">
        <ele>838</ele>
        <time>2016-08-12T12:30:57+02:00</time>
      </trkpt>
      <trkpt lat="48.51518" lon="7.17291">
        <ele>839</ele>
        <time>2016-08-12T12:31:17+02:00</time>
      </trkpt>
      <trkpt lat="48.51534" lon="7.17267">
        <ele>839</ele>
        <time>2016-08-12T12:31:34+02:00</time>
      </trkpt>
      <trkpt lat="48.51546" lon="7.17252">
        <ele>839</ele>
        <time>2016-08-12T12:31:41+02:00</time>
      </trkpt>
      <trkpt lat="48.5156" lon="7.17224">
        <ele>840</ele>
        <time>2016-08-12T12:31:59+02:00</time>
      </trkpt>
      <trkpt lat="48.51567" lon="7.17207">
        <ele>840</ele>
        <time>2016-08-12T12:32:09+02:00</time>
      </trkpt>
      <trkpt lat="48.51572" lon="7.17175">
        <ele>839</ele>
        <time>2016-08-12T12:32:24+02:00</time>
      </trkpt>
      <trkpt lat="48.51572" lon="7.17157">
        <ele>837</ele>
        <time>2016-08-12T12:32:32+02:00</time>
      </trkpt>
      <trkpt lat="48.51575" lon="7.17125">
        <ele>834</ele>
        <time>2016-08-12T12:32:46+02:00</time>
      </trkpt>
      <trkpt lat="48.5158" lon="7.17094">
        <ele>832</ele>
        <time>2016-08-12T12:33:04+02:00</time>
      </trkpt>
      <trkpt lat="48.51587" lon="7.17058">
        <ele>831</ele>
        <time>2016-08-12T12:33:21+02:00</time>
      </trkpt>
      <trkpt lat="48.51587" lon="7.17035">
        <ele>831</ele>
      </trkpt>
      <trkpt lat="48.51567" lon="7.17052">
        <ele>828</ele>
        <time>2016-08-12T12:33:52+02:00</time>
      </trkpt>
      <trkpt lat="48.51561" lon="7.17064">
        <ele>826</ele>
      </trkpt>
      <trkpt lat="48.51555" lon="7.17084">
        <ele>825</ele>
        <time>2016-08-12T12:34:07+02:00</time>
      </trkpt>
      <trkpt lat="48.5154" lon="7.1711">
        <ele>824</ele>
        <time>2016-08-12T12:34:25+02:00</time>
      </trkpt>
      <trkpt lat="48.51533" lon="7.17138">
        <ele>824</ele>
        <time>2016-08-12T12:34:41+02:00</time>
      </trkpt>
      <trkpt lat="48.51526" lon="7.17167">
        <ele>824</ele>
        <time>2016-08-12T12:34:57+02:00</time>
      </trkpt>
      <trkpt lat="48.51517" lon="7.17192">
        <ele>824</ele>
        <time>2016-08-12T12:35:13+02:00</time>
      </trkpt>
      <trkpt lat="48.51515" lon="7.17194">
        <ele>824</ele>
        <time>2016-08-12T12:35:15+02:00</time>
      </trkpt>
      <trkpt lat="48.51499" lon="7.17224">
        <ele>824</ele>
        <time>2016-08-12T12:35:31+02:00</time>
      </trkpt>
      <trkpt lat="48.51482" lon="7.17242">
        <ele>821</ele>
        <time>2016-08-12T12:35:48+02:00</time>
      </trkpt>
      <trkpt lat="48.51468" lon="7.17255">
        <ele>819</ele>
        <time>2016-08-12T12:35:57+02:00</time>
      </trkpt>
      <trkpt lat="48.51452" lon="7.17267">
        <ele>816</ele>
        <time>2016-08-12T12:36:11+02:00</time>
      </trkpt>
      <trkpt lat="48.51438" lon="7.17279">
        <ele>815</ele>
        <time>2016-08-12T12:36:25+02:00</time>
      </trkpt>
      <trkpt lat="48.51418" lon="7.17294">
        <ele>812</ele>
        <time>2016-08-12T12:36:42+02:00</time>
      </trkpt>
      <trkpt lat="48.51399" lon="7.17303">
        <ele>810</ele>
        <time>2016-08-12T12:36:58+02:00</time>
      </trkpt>
      <trkpt lat="48.51382" lon="7.17312">
        <ele>807</ele>
        <time>2016-08-12T12:37:12+02:00</time>
      </trkpt>
      <trkpt lat="48.51361" lon="7.17324">
        <ele>804</ele>
        <time>2016-08-12T12:37:28+02:00</time>
      </trkpt>
      <trkpt lat="48.51345" lon="7.17335">
        <ele>801</ele>
        <time>2016-08-12T12:37:43+02:00</time>
      </trkpt>
      <trkpt lat="48.51335" lon="7.17341">
        <ele>799</ele>
        <time>2016-08-12T12:37:50+02:00</time>
      </trkpt>
      <trkpt lat="48.51316" lon="7.17355">
        <ele>795</ele>
        <time>2016-08-12T12:38:27+02:00</time>
      </trkpt>
      <trkpt lat="48.51314" lon="7.17356">
        <ele>795</ele>
        <time>2016-08-12T12:38:28+02:00</time>
      </trkpt>
      <trkpt lat="48.51291" lon="7.17369">
        <ele>790</ele>
        <time>2016-08-12T12:38:44+02:00</time>
      </trkpt>
      <trkpt lat="48.5127" lon="7.17394">
        <ele>788</ele>
        <time>2016-08-12T12:39:04+02:00</time>
      </trkpt>
      <trkpt lat="48.51262" lon="7.17404">
        <ele>787</ele>
      </trkpt>
      <trkpt lat="48.51259" lon="7.1742">
        <ele>788</ele>
        <time>2016-08-12T12:39:20+02:00</time>
      </trkpt>
      <trkpt lat="48.51249" lon="7.17454">
        <ele>785</ele>
        <time>2016-08-12T12:39:37+02:00</time>
      </trkpt>
      <trkpt lat="48.51243" lon="7.17468">
        <ele>783</ele>
        <time>2016-08-12T12:39:45+02:00</time>
      </trkpt>
      <trkpt lat="48.51228" lon="7.17489">
        <ele>780</ele>
        <time>2016-08-12T12:40:02+02:00</time>
      </trkpt>
      <trkpt lat="48.51215" lon="7.17509">
        <ele>777</ele>
        <time>2016-08-12T12:40:17+02:00</time>
      </trkpt>
      <trkpt lat="48.51208" lon="7.17536">
        <ele>776</ele>
        <time>2016-08-12T12:40:33+02:00</time>
      </trkpt>
      <trkpt lat="48.51206" lon="7.17554">
        <ele>776</ele>
        <time>2016-08-12T12:40:44+02:00</time>
      </trkpt>
      <trkpt lat="48.51205" lon="7.17577">
        <ele>777</ele>
        <time>2016-08-12T12:40:58+02:00</time>
      </trkpt>
      <trkpt lat="48.51201" lon="7.17616">
        <ele>774</ele>
        <time>2016-08-12T12:41:17+02:00</time>
      </trkpt>
      <trkpt lat="48.51199" lon="7.17652">
        <ele>772</ele>
        <time>2016-08-12T12:41:32+02:00</time>
      </trkpt>
      <trkpt lat="48.51195" lon="7.17686">
        <ele>771</ele>
        <time>2016-08-12T12:41:49+02:00</time>
      </trkpt>
      <trkpt lat="48.51193" lon="7.17709">
        <ele>770</ele>
        <time>2016-08-12T12:41:59+02:00</time>
      </trkpt>
      <trkpt lat="48.51188" lon="7.17729">
        <ele>769</ele>
        <time>2016-08-12T12:42:13+02:00</time>
      </trkpt>
      <trkpt lat="48.5118" lon="7.1775">
        <ele>766</ele>
        <time>2016-08-12T12:42:27+02:00</time>
      </trkpt>
      <trkpt lat="48.51161" lon="7.17773">
        <ele>764</ele>
        <time>2016-08-12T12:42:38+02:00</time>
      </trkpt>
      <trkpt lat="48.51154" lon="7.17773">
        <ele>763</ele>
        <time>2016-08-12T12:42:56+02:00</time>
      </trkpt>
      <trkpt lat="48.51136" lon="7.17768">
        <ele>758</ele>
      </trkpt>
      <trkpt lat="48.51106" lon="7.17761">
        <ele>750</ele>
        <time>2016-08-12T12:43:11+02:00</time>
      </trkpt>
      <trkpt lat="48.51091" lon="7.17759">
        <ele>747</ele>
        <time>2016-08-12T12:43:30+02:00</time>
      </trkpt>
      <trkpt lat="48.51076" lon="7.17754">
        <ele>743</ele>
        <time>2016-08-12T12:43:46+02:00</time>
      </trkpt>
      <trkpt lat="48.51061" lon="7.1775">
        <ele>740</ele>
        <time>2016-08-12T12:44:04+02:00</time>
      </trkpt>
      <trkpt lat="48.51038" lon="7.17743">
        <ele>736</ele>
        <time>2016-08-12T12:44:19+02:00</time>
      </trkpt>
      <trkpt lat="48.51007" lon="7.17745">
        <ele>733</ele>
        <time>2016-08-12T12:44:48+02:00</time>
      </trkpt>
      <trkpt lat="48.50991" lon="7.17743">
        <ele>730</ele>
        <time>2016-08-12T12:45:03+02:00</time>
      </trkpt>
      <trkpt lat="48.50971" lon="7.17748">
        <ele>728</ele>
        <time>2016-08-12T12:45:23+02:00</time>
      </trkpt>
      <trkpt lat="48.50956" lon="7.17751">
        <ele>726</ele>
        <time>2016-08-12T12:45:42+02:00</time>
      </trkpt>
      <trkpt lat="48.50937" lon="7.17753">
        <ele>724</ele>
        <time>2016-08-12T12:46:14+02:00</time>
      </trkpt>
      <trkpt lat="48.50922" lon="7.17759">
        <ele>723</ele>
        <time>2016-08-12T12:46:30+02:00</time>
      </trkpt>
      <trkpt lat="48.50908" lon="7.17766">
        <ele>722</ele>
        <time>2016-08-12T12:46:41+02:00</time>
      </trkpt>
      <trkpt lat="48.50893" lon="7.17772">
        <ele>721</ele>
        <time>2016-08-12T12:46:56+02:00</time>
      </trkpt>
      <trkpt lat="48.50875" lon="7.17781">
        <ele>719</ele>
        <time>2016-08-12T12:47:08+02:00</time>
      </trkpt>
      <trkpt lat="48.50861" lon="7.17787">
        <ele>718</ele>
        <time>2016-08-12T12:47:25+02:00</time>
      </trkpt>
      <trkpt lat="48.50839" lon="7.178">
        <ele>717</ele>
        <time>2016-08-12T12:47:43+02:00</time>
      </trkpt>
      <trkpt lat="48.50815" lon="7.17796">
        <ele>710</ele>
        <time>2016-08-12T12:48:01+02:00</time>
      </trkpt>
      <trkpt lat="48.50793" lon="7.17794">
        <ele>704</ele>
        <time>2016-08-12T12:48:19+02:00</time>
      </trkpt>
      <trkpt lat="48.50777" lon="7.17794">
        <ele>701</ele>
        <time>2016-08-12T12:48:27+02:00</time>
      </trkpt>
      <trkpt lat="48.50759" lon="7.17794">
        <ele>696</ele>
        <time>2016-08-12T12:48:45+02:00</time>
      </trkpt>
      <trkpt lat="48.50741" lon="7.17796">
        <ele>693</ele>
        <time>2016-08-12T12:49:02+02:00</time>
      </trkpt>
      <trkpt lat="48.50724" lon="7.17799">
        <ele>690</ele>
        <time>2016-08-12T12:49:17+02:00</time>
      </trkpt>
      <trkpt lat="48.50702" lon="7.17807">
        <ele>686</ele>
        <time>2016-08-12T12:49:38+02:00</time>
      </trkpt>
      <trkpt lat="48.50685" lon="7.17813">
        <ele>684</ele>
        <time>2016-08-12T12:49:52+02:00</time>
      </trkpt>
      <trkpt lat="48.50668" lon="7.17818">
        <ele>681</ele>
        <time>2016-08-12T12:50:23+02:00</time>
      </trkpt>
      <trkpt lat="48.5065" lon="7.17828">
        <ele>679</ele>
        <time>2016-08-12T12:50:43+02:00</time>
      </trkpt>
      <trkpt lat="48.50638" lon="7.17836">
        <ele>678</ele>
        <time>2016-08-12T12:50:47+02:00</time>
      </trkpt>
      <trkpt lat="48.50625" lon="7.17845">
        <ele>676</ele>
        <time>2016-08-12T12:51:04+02:00</time>
      </trkpt>
      <trkpt lat="48.50614" lon="7.17851">
        <ele>674</ele>
        <time>2016-08-12T12:51:18+02:00</time>
      </trkpt>
      <trkpt lat="48.50602" lon="7.1786">
        <ele>673</ele>
        <time>2016-08-12T12:51:32+02:00</time>
      </trkpt>
      <trkpt lat="48.5059" lon="7.17872">
        <ele>672</ele>
        <time>2016-08-12T12:51:49+02:00</time>
      </trkpt>
      <trkpt lat="48.50574" lon="7.17886">
        <ele>670</ele>
        <time>2016-08-12T12:52:09+02:00</time>
      </trkpt>
      <trkpt lat="48.50563" lon="7.17892">
        <ele>668</ele>
        <time>2016-08-12T12:52:16+02:00</time>
      </trkpt>
      <trkpt lat="48.50549" lon="7.17908">
        <ele>667</ele>
        <time>2016-08-12T12:52:34+02:00</time>
      </trkpt>
      <trkpt lat="48.50532" lon="7.17926">
        <ele>664</ele>
        <time>2016-08-12T12:52:51+02:00</time>
      </trkpt>
      <trkpt lat="48.5052" lon="7.17938">
        <ele>663</ele>
        <time>2016-08-12T12:53:01+02:00</time>
      </trkpt>
      <trkpt lat="48.50495" lon="7.17962">
        <ele>659</ele>
        <time>2016-08-12T12:53:21+02:00</time>
      </trkpt>
      <trkpt lat="48.50478" lon="7.17974">
        <ele>658</ele>
        <time>2016-08-12T12:53:37+02:00</time>
      </trkpt>
      <trkpt lat="48.50454" lon="7.17986">
        <ele>656</ele>
        <time>2016-08-12T12:53:55+02:00</time>
      </trkpt>
      <trkpt lat="48.50434" lon="7.17994">
        <ele>654</ele>
      </trkpt>
      <trkpt lat="48.50423" lon="7.17994">
        <ele>653</ele>
        <time>2016-08-12T12:54:11+02:00</time>
      </trkpt>
      <trkpt lat="48.50424" lon="7.18027">
        <ele>655</ele>
        <time>2016-08-12T12:54:25+02:00</time>
      </trkpt>
      <trkpt lat="48.50424" lon="7.18039">
        <ele>656</ele>
        <time>2016-08-12T12:54:27+02:00</time>
      </trkpt>
      <trkpt lat="48.50411" lon="7.18047">
        <ele>655</ele>
      </trkpt>
      <trkpt lat="48.50405" lon="7.18067">
        <ele>655</ele>
        <time>2016-08-12T12:54:46+02:00</time>
      </trkpt>
      <trkpt lat="48.504" lon="7.18091">
        <ele>656</ele>
        <time>2016-08-12T12:55:06+02:00</time>
      </trkpt>
      <trkpt lat="48.50388" lon="7.18107">
        <ele>654</ele>
        <time>2016-08-12T12:55:08+02:00</time>
      </trkpt>
      <trkpt lat="48.50374" lon="7.18101">
        <ele>652</ele>
        <time>2016-08-12T12:55:27+02:00</time>
      </trkpt>
      <trkpt lat="48.50368" lon="7.18085">
        <ele>651</ele>
        <time>2016-08-12T12:55:29+02:00</time>
      </trkpt>
      <trkpt lat="48.50359" lon="7.18067">
        <ele>649</ele>
      </trkpt>
      <trkpt lat="48.50344" lon="7.18056">
        <ele>647</ele>
        <time>2016-08-12T12:55:47+02:00</time>
      </trkpt>
      <trkpt lat="48.50327" lon="7.18028">
        <ele>646</ele>
        <time>2016-08-12T12:56:06+02:00</time>
      </trkpt>
      <trkpt lat="48.5031" lon="7.18006">
        <ele>645</ele>
        <time>2016-08-12T12:56:24+02:00</time>
      </trkpt>
      <trkpt lat="48.50297" lon="7.17993">
        <ele>644</ele>
        <time>2016-08-12T12:56:36+02:00</time>
      </trkpt>
      <trkpt lat="48.50277" lon="7.17976">
        <ele>643</ele>
        <time>2016-08-12T12:56:52+02:00</time>
      </trkpt>
      <trkpt lat="48.50254" lon="7.17963">
        <ele>642</ele>
        <time>2016-08-12T12:57:09+02:00</time>
      </trkpt>
      <trkpt lat="48.50238" lon="7.17952">
        <ele>641</ele>
        <time>2016-08-12T12:57:27+02:00</time>
      </trkpt>
      <trkpt lat="48.50221" lon="7.17941">
        <ele>640</ele>
        <time>2016-08-12T12:57:43+02:00</time>
      </trkpt>
      <trkpt lat="48.50209" lon="7.17929">
        <ele>640</ele>
        <time>2016-08-12T12:57:54+02:00</time>
      </trkpt>
      <trkpt lat="48.50183" lon="7.17921">
        <ele>639</ele>
        <time>2016-08-12T12:58:13+02:00</time>
      </trkpt>
      <trkpt lat="48.50181" lon="7.1792">
        <ele>639</ele>
        <time>2016-08-12T12:58:15+02:00</time>
      </trkpt>
      <trkpt lat="48.50159" lon="7.17912">
        <ele>639</ele>
        <time>2016-08-12T12:58:31+02:00</time>
      </trkpt>
      <trkpt lat="48.50143" lon="7.17896">
        <ele>640</ele>
        <time>2016-08-12T12:58:48+02:00</time>
      </trkpt>
      <trkpt lat="48.50127" lon="7.17886">
        <ele>642</ele>
        <time>2016-08-12T12:59:04+02:00</time>
      </trkpt>
      <trkpt lat="48.50111" lon="7.17884">
        <ele>643</ele>
        <time>2016-08-12T12:59:13+02:00</time>
      </trkpt>
      <trkpt lat="48.50094" lon="7.17888">
        <ele>644</ele>
        <time>2016-08-12T12:59:30+02:00</time>
      </trkpt>
      <trkpt lat="48.50078" lon="7.17891">
        <ele>644</ele>
        <time>2016-08-12T12:59:40+02:00</time>
      </trkpt>
      <trkpt lat="48.50058" lon="7.17897">
        <ele>645</ele>
        <time>2016-08-12T12:59:52+02:00</time>
      </trkpt>
      <trkpt lat="48.50029" lon="7.1791">
        <ele>646</ele>
        <time>2016-08-12T13:00:11+02:00</time>
      </trkpt>
      <trkpt lat="48.50009" lon="7.17927">
        <ele>645</ele>
        <time>2016-08-12T13:00:30+02:00</time>
      </trkpt>
      <trkpt lat="48.49972" lon="7.17934">
        <ele>641</ele>
        <time>2016-08-12T13:00:49+02:00</time>
      </trkpt>
      <trkpt lat="48.49957" lon="7.17941">
        <ele>638</ele>
        <time>2016-08-12T13:01:00+02:00</time>
      </trkpt>
      <trkpt lat="48.49935" lon="7.17947">
        <ele>635</ele>
      </trkpt>
      <trkpt lat="48.49911" lon="7.17947">
        <ele>632</ele>
        <time>2016-08-12T13:01:20+02:00</time>
      </trkpt>
      <trkpt lat="48.49897" lon="7.17949">
        <ele>630</ele>
        <time>2016-08-12T13:01:35+02:00</time>
      </trkpt>
      <trkpt lat="48.49874" lon="7.17949">
        <ele>627</ele>
        <time>2016-08-12T13:01:56+02:00</time>
      </trkpt>
      <trkpt lat="48.49848" lon="7.17953">
        <ele>624</ele>
        <time>2016-08-12T13:02:23+02:00</time>
      </trkpt>
      <trkpt lat="48.49822" lon="7.17952">
        <ele>623</ele>
        <time>2016-08-12T13:02:44+02:00</time>
      </trkpt>
      <trkpt lat="48.49795" lon="7.17957">
        <ele>623</ele>
      </trkpt>
      <trkpt lat="48.49771" lon="7.17967">
        <ele>622</ele>
        <time>2016-08-12T13:03:06+02:00</time>
      </trkpt>
      <trkpt lat="48.49753" lon="7.1798">
        <ele>620</ele>
      </trkpt>
      <trkpt lat="48.49737" lon="7.17984">
        <ele>617</ele>
        <time>2016-08-12T13:03:28+02:00</time>
      </trkpt>
      <trkpt lat="48.49701" lon="7.17985">
        <ele>614</ele>
        <time>2016-08-12T13:03:52+02:00</time>
      </trkpt>
      <trkpt lat="48.49667" lon="7.17994">
        <ele>608</ele>
        <time>2016-08-12T13:04:16+02:00</time>
      </trkpt>
      <trkpt lat="48.49632" lon="7.17996">
        <ele>607</ele>
        <time>2016-08-12T13:04:41+02:00</time>
      </trkpt>
      <trkpt lat="48.49589" lon="7.17994">
        <ele>606</ele>
        <time>2016-08-12T13:05:04+02:00</time>
      </trkpt>
      <trkpt lat="48.49552" lon="7.17994">
        <ele>607</ele>
        <time>2016-08-12T13:05:22+02:00</time>
      </trkpt>
      <trkpt lat="48.49519" lon="7.17994">
        <ele>609</ele>
        <time>2016-08-12T13:05:37+02:00</time>
      </trkpt>
      <trkpt lat="48.49498" lon="7.17981">
        <ele>610</ele>
        <time>2016-08-12T13:05:43+02:00</time>
      </trkpt>
      <trkpt lat="48.49487" lon="7.17959">
        <ele>607</ele>
        <time>2016-08-12T13:06:00+02:00</time>
      </trkpt>
      <trkpt lat="48.49482" lon="7.1794">
        <ele>607</ele>
        <time>2016-08-12T13:06:16+02:00</time>
      </trkpt>
      <trkpt lat="48.49475" lon="7.17917">
        <ele>606</ele>
        <time>2016-08-12T13:06:32+02:00</time>
      </trkpt>
      <trkpt lat="48.49464" lon="7.17901">
        <ele>602</ele>
        <time>2016-08-12T13:06:48+02:00</time>
      </trkpt>
      <trkpt lat="48.49456" lon="7.17877">
        <ele>599</ele>
        <time>2016-08-12T13:07:02+02:00</time>
      </trkpt>
      <trkpt lat="48.49449" lon="7.17827">
        <ele>598</ele>
        <time>2016-08-12T13:07:17+02:00</time>
      </trkpt>
      <trkpt lat="48.49444" lon="7.17798">
        <ele>595</ele>
        <time>2016-08-12T13:07:33+02:00</time>
      </trkpt>
      <trkpt lat="48.49438" lon="7.17765">
        <ele>593</ele>
        <time>2016-08-12T13:07:51+02:00</time>
      </trkpt>
      <trkpt lat="48.49432" lon="7.17739">
        <ele>592</ele>
        <time>2016-08-12T13:08:02+02:00</time>
      </trkpt>
      <trkpt lat="48.49426" lon="7.17713">
        <ele>592</ele>
        <time>2016-08-12T13:08:18+02:00</time>
      </trkpt>
      <trkpt lat="48.49421" lon="7.17686">
        <ele>593</ele>
        <time>2016-08-12T13:08:35+02:00</time>
      </trkpt>
      <trkpt lat="48.4939" lon="7.17668">
        <ele>587</ele>
        <time>2016-08-12T13:08:57+02:00</time>
      </trkpt>
      <trkpt lat="48.49357" lon="7.17649">
        <ele>582</ele>
        <time>2016-08-12T13:09:14+02:00</time>
      </trkpt>
      <trkpt lat="48.49244" lon="7.17649">
        <ele>550</ele>
        <time>2016-08-12T13:10:05+02:00</time>
      </trkpt>
      <trkpt lat="48.4915" lon="7.17662">
        <ele>542</ele>
        <time>2016-08-12T13:13:59+02:00</time>
      </trkpt>
      <trkpt lat="48.49106" lon="7.17719">
        <ele>528</ele>
        <time>2016-08-12T13:14:12+02:00</time>
      </trkpt>
      <trkpt lat="48.49002" lon="7.1782">
        <ele>502</ele>
        <time>2016-08-12T13:15:19+02:00</time>
      </trkpt>
      <trkpt lat="48.48885" lon="7.17898">
        <ele>481</ele>
        <time>2016-08-12T13:16:24+02:00</time>
      </trkpt>
      <trkpt lat="48.488" lon="7.17923">
        <ele>473</ele>
        <time>2016-08-12T13:18:54+02:00</time>
      </trkpt>
      <trkpt lat="48.48732" lon="7.1797">
        <ele>465</ele>
        <time>2016-08-12T13:20:16+02:00</time>
      </trkpt>
      <trkpt lat="48.48649" lon="7.18044">
        <ele>446</ele>
      </trkpt>
      <trkpt lat="48.48572" lon="7.18095">
        <ele>429</ele>
        <time>2016-08-12T13:23:03+02:00</time>
      </trkpt>
      <trkpt lat="48.4856" lon="7.18099">
        <ele>424</ele>
        <time>2016-08-12T13:23:18+02:00</time>
      </trkpt>
      <trkpt lat="48.48551" lon="7.18099">
        <ele>421</ele>
        <time>2016-08-12T13:23:39+02:00</time>
      </trkpt>
      <trkpt lat="48.48544" lon="7.18098">
        <ele>420</ele>
        <time>2016-08-12T13:23:51+02:00</time>
      </trkpt>
      <trkpt lat="48.48537" lon="7.18083">
        <ele>420</ele>
        <time>2016-08-12T13:24:08+02:00</time>
      </trkpt>
      <trkpt lat="48.48532" lon="7.18057">
        <ele>421</ele>
        <time>2016-08-12T13:24:25+02:00</time>
      </trkpt>
      <trkpt lat="48.48531" lon="7.18035">
        <ele>422</ele>
        <time>2016-08-12T13:24:43+02:00</time>
      </trkpt>
      <trkpt lat="48.48532" lon="7.18013">
        <ele>424</ele>
        <time>2016-08-12T13:25:01+02:00</time>
      </trkpt>
      <trkpt lat="48.48533" lon="7.1799">
        <ele>426</ele>
        <time>2016-08-12T13:25:19+02:00</time>
      </trkpt>
      <trkpt lat="48.48534" lon="7.17978">
        <ele>427</ele>
        <time>2016-08-12T13:25:35+02:00</time>
      </trkpt>
      <trkpt lat="48.48535" lon="7.17965">
        <ele>428</ele>
        <time>2016-08-12T13:25:56+02:00</time>
      </trkpt>
      <trkpt lat="48.48535" lon="7.17945">
        <ele>429</ele>
        <time>2016-08-12T13:26:15+02:00</time>
      </trkpt>
      <trkpt lat="48.48536" lon="7.17921">
        <ele>430</ele>
        <time>2016-08-12T13:26:39+02:00</time>
      </trkpt>
      <trkpt lat="48.48535" lon="7.17881">
        <ele>432</ele>
        <time>2016-08-12T13:27:01+02:00</time>
      </trkpt>
      <trkpt lat="48.48532" lon="7.17848">
        <ele>433</ele>
        <time>2016-08-12T13:27:23+02:00</time>
      </trkpt>
      <trkpt lat="48.4853" lon="7.17809">
        <ele>434</ele>
        <time>2016-08-12T13:27:46+02:00</time>
      </trkpt>
      <trkpt lat="48.48526" lon="7.17761">
        <ele>436</ele>
        <time>2016-08-12T13:28:09+02:00</time>
      </trkpt>
      <trkpt lat="48.48524" lon="7.17727">
        <ele>439</ele>
        <time>2016-08-12T13:28:31+02:00</time>
      </trkpt>
      <trkpt lat="48.4852" lon="7.17689">
        <ele>444</ele>
        <time>2016-08-12T13:28:52+02:00</time>
      </trkpt>
      <trkpt lat="48.48512" lon="7.17652">
        <ele>448</ele>
        <time>2016-08-12T13:29:14+02:00</time>
      </trkpt>
      <trkpt lat="48.48505" lon="7.17634">
        <ele>448</ele>
      </trkpt>
      <trkpt lat="48.48488" lon="7.17612">
        <ele>445</ele>
        <time>2016-08-12T13:29:36+02:00</time>
      </trkpt>
      <trkpt lat="48.48479" lon="7.17582">
        <ele>448</ele>
        <time>2016-08-12T13:29:58+02:00</time>
      </trkpt>
      <trkpt lat="48.48472" lon="7.17557">
        <ele>448</ele>
        <time>2016-08-12T13:30:12+02:00</time>
      </trkpt>
      <trkpt lat="48.48464" lon="7.17527">
        <ele>448</ele>
        <time>2016-08-12T13:30:34+02:00</time>
      </trkpt>
      <trkpt lat="48.48465" lon="7.17504">
        <ele>451</ele>
        <time>2016-08-12T13:30:55+02:00</time>
      </trkpt>
      <trkpt lat="48.48466" lon="7.17479">
        <ele>451</ele>
        <time>2016-08-12T13:31:18+02:00</time>
      </trkpt>
      <trkpt lat="48.4847" lon="7.1746">
        <ele>451</ele>
        <time>2016-08-12T13:31:38+02:00</time>
      </trkpt>
      <trkpt lat="48.48475" lon="7.17442">
        <ele>452</ele>
        <time>2016-08-12T13:31:49+02:00</time>
      </trkpt>
      <trkpt lat="48.48483" lon="7.17421">
        <ele>454</ele>
        <time>2016-08-12T13:32:07+02:00</time>
      </trkpt>
      <trkpt lat="48.48492" lon="7.17394">
        <ele>454</ele>
        <time>2016-08-12T13:32:28+02:00</time>
      </trkpt>
      <trkpt lat="48.48504" lon="7.17383">
        <ele>457</ele>
        <time>2016-08-12T13:32:47+02:00</time>
      </trkpt>
      <trkpt lat="48.4852" lon="7.17376">
        <ele>461</ele>
        <time>2016-08-12T13:33:06+02:00</time>
      </trkpt>
      <trkpt lat="48.48534" lon="7.17371">
        <ele>465</ele>
      </trkpt>
      <trkpt lat="48.48546" lon="7.17362">
        <ele>468</ele>
        <time>2016-08-12T13:33:27+02:00</time>
      </trkpt>
      <trkpt lat="48.48561" lon="7.17352">
        <ele>473</ele>
        <time>2016-08-12T13:33:30+02:00</time>
      </trkpt>
      <trkpt lat="48.48578" lon="7.17334">
        <ele>477</ele>
        <time>2016-08-12T13:33:47+02:00</time>
      </trkpt>
      <trkpt lat="48.48587" lon="7.17294">
        <ele>475</ele>
        <time>2016-08-12T13:34:20+02:00</time>
      </trkpt>
      <trkpt lat="48.48594" lon="7.17235">
        <ele>469</ele>
        <time>2016-08-12T13:34:39+02:00</time>
      </trkpt>
      <trkpt lat="48.48597" lon="7.17211">
        <ele>467</ele>
        <time>2016-08-12T13:35:19+02:00</time>
      </trkpt>
      <trkpt lat="48.48597" lon="7.17178">
        <ele>462</ele>
        <time>2016-08-12T13:35:41+02:00</time>
      </trkpt>
      <trkpt lat="48.48595" lon="7.17138">
        <ele>458</ele>
        <time>2016-08-12T13:36:02+02:00</time>
      </trkpt>
      <trkpt lat="48.48606" lon="7.17097">
        <ele>462</ele>
        <time>2016-08-12T13:36:21+02:00</time>
      </trkpt>
      <trkpt lat="48.48612" lon="7.17075">
        <ele>464</ele>
        <time>2016-08-12T13:36:43+02:00</time>
      </trkpt>
      <trkpt lat="48.48615" lon="7.17061">
        <ele>466</ele>
        <time>2016-08-12T13:36:44+02:00</time>
      </trkpt>
      <trkpt lat="48.48625" lon="7.17024">
        <ele>471</ele>
        <time>2016-08-12T13:37:01+02:00</time>
      </trkpt>
      <trkpt lat="48.4863" lon="7.17001">
        <ele>473</ele>
        <time>2016-08-12T13:37:16+02:00</time>
      </trkpt>
      <trkpt lat="48.48637" lon="7.16972">
        <ele>476</ele>
        <time>2016-08-12T13:37:25+02:00</time>
      </trkpt>
      <trkpt lat="48.48643" lon="7.16944">
        <ele>477</ele>
        <time>2016-08-12T13:37:41+02:00</time>
      </trkpt>
      <trkpt lat="48.48648" lon="7.16916">
        <ele>478</ele>
        <time>2016-08-12T13:37:54+02:00</time>
      </trkpt>
      <trkpt lat="48.48651" lon="7.16892">
        <ele>478</ele>
        <time>2016-08-12T13:38:10+02:00</time>
      </trkpt>
      <trkpt lat="48.48656" lon="7.16865">
        <ele>478</ele>
        <time>2016-08-12T13:38:31+02:00</time>
      </trkpt>
      <trkpt lat="48.48658" lon="7.16836">
        <ele>478</ele>
        <time>2016-08-12T13:38:48+02:00</time>
      </trkpt>
      <trkpt lat="48.48662" lon="7.16811">
        <ele>478</ele>
        <time>2016-08-12T13:39:06+02:00</time>
      </trkpt>
      <trkpt lat="48.48667" lon="7.1677">
        <ele>478</ele>
        <time>2016-08-12T13:39:24+02:00</time>
      </trkpt>
      <trkpt lat="48.48672" lon="7.16739">
        <ele>477</ele>
        <time>2016-08-12T13:39:40+02:00</time>
      </trkpt>
      <trkpt lat="48.48679" lon="7.16712">
        <ele>475</ele>
        <time>2016-08-12T13:39:55+02:00</time>
      </trkpt>
      <trkpt lat="48.48689" lon="7.16697">
        <ele>475</ele>
        <time>2016-08-12T13:40:03+02:00</time>
      </trkpt>
      <trkpt lat="48.48702" lon="7.16675">
        <ele>475</ele>
        <time>2016-08-12T13:40:18+02:00</time>
      </trkpt>
      <trkpt lat="48.48716" lon="7.16655">
        <ele>475</ele>
        <time>2016-08-12T13:40:33+02:00</time>
      </trkpt>
      <trkpt lat="48.48732" lon="7.1663">
        <ele>476</ele>
        <time>2016-08-12T13:40:49+02:00</time>
      </trkpt>
      <trkpt lat="48.48744" lon="7.16612">
        <ele>477</ele>
        <time>2016-08-12T13:41:05+02:00</time>
      </trkpt>
      <trkpt lat="48.48752" lon="7.16603">
        <ele>478</ele>
        <time>2016-08-12T13:41:14+02:00</time>
      </trkpt>
      <trkpt lat="48.48773" lon="7.16577">
        <ele>480</ele>
        <time>2016-08-12T13:41:33+02:00</time>
      </trkpt>
      <trkpt lat="48.48797" lon="7.16553">
        <ele>483</ele>
        <time>2016-08-12T13:41:51+02:00</time>
      </trkpt>
      <trkpt lat="48.48825" lon="7.16532">
        <ele>488</ele>
        <time>2016-08-12T13:42:14+02:00</time>
      </trkpt>
      <trkpt lat="48.48844" lon="7.16522">
        <ele>492</ele>
        <time>2016-08-12T13:42:34+02:00</time>
      </trkpt>
      <trkpt lat="48.48866" lon="7.1649">
        <ele>493</ele>
        <time>2016-08-12T13:42:55+02:00</time>
      </trkpt>
      <trkpt lat="48.4889" lon="7.1646">
        <ele>493</ele>
        <time>2016-08-12T13:43:15+02:00</time>
      </trkpt>
      <trkpt lat="48.489" lon="7.16445">
        <ele>493</ele>
        <time>2016-08-12T13:43:31+02:00</time>
      </trkpt>
      <trkpt lat="48.48917" lon="7.16431">
        <ele>496</ele>
        <time>2016-08-12T13:43:44+02:00</time>
      </trkpt>
      <trkpt lat="48.48935" lon="7.16411">
        <ele>495</ele>
        <time>2016-08-12T13:43:55+02:00</time>
      </trkpt>
      <trkpt lat="48.48953" lon="7.16397">
        <ele>494</ele>
        <time>2016-08-12T13:44:11+02:00</time>
      </trkpt>
      <trkpt lat="48.48974" lon="7.16382">
        <ele>493</ele>
        <time>2016-08-12T13:44:31+02:00</time>
      </trkpt>
      <trkpt lat="48.48989" lon="7.16377">
        <ele>494</ele>
        <time>2016-08-12T13:44:50+02:00</time>
      </trkpt>
      <trkpt lat="48.49018" lon="7.16373">
        <ele>495</ele>
        <time>2016-08-12T13:45:10+02:00</time>
      </trkpt>
      <trkpt lat="48.49041" lon="7.16374">
        <ele>496</ele>
        <time>2016-08-12T13:45:22+02:00</time>
      </trkpt>
      <trkpt lat="48.49066" lon="7.1638">
        <ele>498</ele>
        <time>2016-08-12T13:45:37+02:00</time>
      </trkpt>
      <trkpt lat="48.4908" lon="7.16382">
        <ele>499</ele>
        <time>2016-08-12T13:46:42+02:00</time>
      </trkpt>
      <trkpt lat="48.49102" lon="7.16369">
        <ele>497</ele>
        <time>2016-08-12T13:47:08+02:00</time>
      </trkpt>
      <trkpt lat="48.49127" lon="7.16362">
        <ele>495</ele>
        <time>2016-08-12T13:47:31+02:00</time>
      </trkpt>
      <trkpt lat="48.49135" lon="7.1636">
        <ele>495</ele>
        <time>2016-08-12T13:47:35+02:00</time>
      </trkpt>
      <trkpt lat="48.49166" lon="7.16343">
        <ele>492</ele>
        <time>2016-08-12T13:47:57+02:00</time>
      </trkpt>
      <trkpt lat="48.49183" lon="7.16335">
        <ele>488</ele>
        <time>2016-08-12T13:48:17+02:00</time>
      </trkpt>
      <trkpt lat="48.49212" lon="7.16331">
        <ele>486</ele>
        <time>2016-08-12T13:48:39+02:00</time>
      </trkpt>
      <trkpt lat="48.49234" lon="7.16335">
        <ele>485</ele>
        <time>2016-08-12T13:48:57+02:00</time>
      </trkpt>
      <trkpt lat="48.49256" lon="7.16351">
        <ele>487</ele>
        <time>2016-08-12T13:49:15+02:00</time>
      </trkpt>
      <trkpt lat="48.49273" lon="7.16364">
        <ele>487</ele>
        <time>2016-08-12T13:49:29+02:00</time>
      </trkpt>
      <trkpt lat="48.49289" lon="7.1639">
        <ele>488</ele>
        <time>2016-08-12T13:49:45+02:00</time>
      </trkpt>
      <trkpt lat="48.49303" lon="7.16401">
        <ele>487</ele>
        <time>2016-08-12T13:49:59+02:00</time>
      </trkpt>
      <trkpt lat="48.49312" lon="7.16407">
        <ele>486</ele>
        <time>2016-08-12T13:50:07+02:00</time>
      </trkpt>
      <trkpt lat="48.4932" lon="7.16431">
        <ele>488</ele>
        <time>2016-08-12T13:50:22+02:00</time>
      </trkpt>
      <trkpt lat="48.49332" lon="7.16467">
        <ele>491</ele>
        <time>2016-08-12T13:50:41+02:00</time>
      </trkpt>
      <trkpt lat="48.49339" lon="7.16506">
        <ele>497</ele>
        <time>2016-08-12T13:51:03+02:00</time>
      </trkpt>
      <trkpt lat="48.49347" lon="7.16538">
        <ele>500</ele>
        <time>2016-08-12T13:51:21+02:00</time>
      </trkpt>
      <trkpt lat="48.49347" lon="7.16542">
        <ele>500</ele>
        <time>2016-08-12T13:51:23+02:00</time>
      </trkpt>
      <trkpt lat="48.49353" lon="7.16558">
        <ele>501</ele>
      </trkpt>
      <trkpt lat="48.49359" lon="7.16574">
        <ele>502</ele>
        <time>2016-08-12T13:51:41+02:00</time>
      </trkpt>
      <trkpt lat="48.49367" lon="7.16601">
        <ele>505</ele>
        <time>2016-08-12T13:51:59+02:00</time>
      </trkpt>
      <trkpt lat="48.49377" lon="7.16628">
        <ele>508</ele>
        <time>2016-08-12T13:52:12+02:00</time>
      </trkpt>
      <trkpt lat="48.49391" lon="7.16655">
        <ele>510</ele>
        <time>2016-08-12T13:52:31+02:00</time>
      </trkpt>
      <trkpt lat="48.49408" lon="7.16638">
        <ele>504</ele>
        <time>2016-08-12T13:52:56+02:00</time>
      </trkpt>
      <trkpt lat="48.49428" lon="7.16627">
        <ele>503</ele>
        <time>2016-08-12T13:53:18+02:00</time>
      </trkpt>
      <trkpt lat="48.49441" lon="7.16615">
        <ele>505</ele>
        <time>2016-08-12T13:54:04+02:00</time>
      </trkpt>
      <trkpt lat="48.49445" lon="7.16605">
        <ele>505</ele>
        <time>2016-08-12T13:54:34+02:00</time>
      </trkpt>
      <trkpt lat="48.49465" lon="7.16597">
        <ele>511</ele>
        <time>2016-08-12T13:55:20+02:00</time>
      </trkpt>
      <trkpt lat="48.49474" lon="7.16576">
        <ele>514</ele>
        <time>2016-08-12T13:55:40+02:00</time>
      </trkpt>
      <trkpt lat="48.49475" lon="7.16546">
        <ele>516</ele>
        <time>2016-08-12T13:56:01+02:00</time>
      </trkpt>
      <trkpt lat="48.49477" lon="7.16516">
        <ele>518</ele>
        <time>2016-08-12T13:56:20+02:00</time>
      </trkpt>
      <trkpt lat="48.49478" lon="7.16472">
        <ele>522</ele>
        <time>2016-08-12T13:56:44+02:00</time>
      </trkpt>
      <trkpt lat="48.4948" lon="7.16431">
        <ele>527</ele>
        <time>2016-08-12T13:57:04+02:00</time>
      </trkpt>
      <trkpt lat="48.49481" lon="7.16398">
        <ele>529</ele>
        <time>2016-08-12T13:57:27+02:00</time>
      </trkpt>
      <trkpt lat="48.4948" lon="7.16378">
        <ele>529</ele>
        <time>2016-08-12T13:57:37+02:00</time>
      </trkpt>
      <trkpt lat="48.49479" lon="7.1636">
        <ele>530</ele>
        <time>2016-08-12T13:57:44+02:00</time>
      </trkpt>
      <trkpt lat="48.49479" lon="7.16332">
        <ele>531</ele>
        <time>2016-08-12T13:57:58+02:00</time>
      </trkpt>
      <trkpt lat="48.4948" lon="7.16298">
        <ele>529</ele>
        <time>2016-08-12T13:58:20+02:00</time>
      </trkpt>
      <trkpt lat="48.49485" lon="7.16263">
        <ele>529</ele>
        <time>2016-08-12T13:58:34+02:00</time>
      </trkpt>
      <trkpt lat="48.49491" lon="7.16229">
        <ele>529</ele>
        <time>2016-08-12T13:58:53+02:00</time>
      </trkpt>
      <trkpt lat="48.49499" lon="7.16199">
        <ele>529</ele>
        <time>2016-08-12T13:59:13+02:00</time>
      </trkpt>
      <trkpt lat="48.49522" lon="7.16171">
        <ele>537</ele>
        <time>2016-08-12T13:59:30+02:00</time>
      </trkpt>
      <trkpt lat="48.49532" lon="7.1616">
        <ele>539</ele>
        <time>2016-08-12T13:59:41+02:00</time>
      </trkpt>
      <trkpt lat="48.49548" lon="7.1614">
        <ele>544</ele>
        <time>2016-08-12T13:59:58+02:00</time>
      </trkpt>
      <trkpt lat="48.4956" lon="7.16125">
        <ele>547</ele>
        <time>2016-08-12T14:00:17+02:00</time>
      </trkpt>
      <trkpt lat="48.49578" lon="7.16095">
        <ele>551</ele>
        <time>2016-08-12T14:00:41+02:00</time>
      </trkpt>
      <trkpt lat="48.49595" lon="7.16059">
        <ele>552</ele>
        <time>2016-08-12T14:01:00+02:00</time>
      </trkpt>
      <trkpt lat="48.49614" lon="7.16038">
        <ele>555</ele>
        <time>2016-08-12T14:01:18+02:00</time>
      </trkpt>
      <trkpt lat="48.4964" lon="7.16017">
        <ele>560</ele>
        <time>2016-08-12T14:01:40+02:00</time>
      </trkpt>
      <trkpt lat="48.49671" lon="7.15993">
        <ele>565</ele>
        <time>2016-08-12T14:02:00+02:00</time>
      </trkpt>
      <trkpt lat="48.49692" lon="7.15976">
        <ele>567</ele>
        <time>2016-08-12T14:02:20+02:00</time>
      </trkpt>
      <trkpt lat="48.49713" lon="7.1596">
        <ele>568</ele>
        <time>2016-08-12T14:02:41+02:00</time>
      </trkpt>
      <trkpt lat="48.49726" lon="7.1595">
        <ele>569</ele>
        <time>2016-08-12T14:03:02+02:00</time>
      </trkpt>
      <trkpt lat="48.49749" lon="7.15931">
        <ele>570</ele>
        <time>2016-08-12T14:03:21+02:00</time>
      </trkpt>
      <trkpt lat="48.49765" lon="7.15925">
        <ele>571</ele>
        <time>2016-08-12T14:03:40+02:00</time>
      </trkpt>
      <trkpt lat="48.49778" lon="7.15917">
        <ele>571</ele>
        <time>2016-08-12T14:03:51+02:00</time>
      </trkpt>
      <trkpt lat="48.49794" lon="7.15909">
        <ele>572</ele>
        <time>2016-08-12T14:04:04+02:00</time>
      </trkpt>
      <trkpt lat="48.49806" lon="7.15906">
        <ele>573</ele>
        <time>2016-08-12T14:04:18+02:00</time>
      </trkpt>
      <trkpt lat="48.49816" lon="7.15905">
        <ele>575</ele>
        <time>2016-08-12T14:04:38+02:00</time>
      </trkpt>
      <trkpt lat="48.4983" lon="7.15902">
        <ele>577</ele>
        <time>2016-08-12T14:05:01+02:00</time>
      </trkpt>
      <trkpt lat="48.4985" lon="7.15904">
        <ele>579</ele>
        <time>2016-08-12T14:05:22+02:00</time>
      </trkpt>
      <trkpt lat="48.4987" lon="7.15904">
        <ele>580</ele>
        <time>2016-08-12T14:05:47+02:00</time>
      </trkpt>
      <trkpt lat="48.49906" lon="7.15908">
        <ele>583</ele>
        <time>2016-08-12T14:06:09+02:00</time>
      </trkpt>
      <trkpt lat="48.49932" lon="7.15912">
        <ele>585</ele>
        <time>2016-08-12T14:06:31+02:00</time>
      </trkpt>
      <trkpt lat="48.49962" lon="7.15916">
        <ele>588</ele>
        <time>2016-08-12T14:06:52+02:00</time>
      </trkpt>
      <trkpt lat="48.49991" lon="7.15923">
        <ele>590</ele>
        <time>2016-08-12T14:07:14+02:00</time>
      </trkpt>
      <trkpt lat="48.50011" lon="7.15933">
        <ele>595</ele>
        <time>2016-08-12T14:07:35+02:00</time>
      </trkpt>
      <trkpt lat="48.50028" lon="7.15931">
        <ele>598</ele>
        <time>2016-08-12T14:07:47+02:00</time>
      </trkpt>
      <trkpt lat="48.50037" lon="7.15919">
        <ele>597</ele>
        <time>2016-08-12T14:07:51+02:00</time>
      </trkpt>
      <trkpt lat="48.5004" lon="7.15908">
        <ele>596</ele>
        <time>2016-08-12T14:08:09+02:00</time>
      </trkpt>
      <trkpt lat="48.50043" lon="7.15896">
        <ele>595</ele>
        <time>2016-08-12T14:08:29+02:00</time>
      </trkpt>
      <trkpt lat="48.50047" lon="7.15882">
        <ele>595</ele>
        <time>2016-08-12T14:08:48+02:00</time>
      </trkpt>
      <trkpt lat="48.50048" lon="7.1586">
        <ele>593</ele>
        <time>2016-08-12T14:09:04+02:00</time>
      </trkpt>
      <trkpt lat="48.50051" lon="7.15839">
        <ele>591</ele>
        <time>2016-08-12T14:09:20+02:00</time>
      </trkpt>
      <trkpt lat="48.50053" lon="7.15821">
        <ele>591</ele>
        <time>2016-08-12T14:09:36+02:00</time>
      </trkpt>
      <trkpt lat="48.50054" lon="7.15802">
        <ele>591</ele>
        <time>2016-08-12T14:09:45+02:00</time>
      </trkpt>
      <trkpt lat="48.50057" lon="7.1578">
        <ele>592</ele>
        <time>2016-08-12T14:10:04+02:00</time>
      </trkpt>
      <trkpt lat="48.5006" lon="7.15744">
        <ele>592</ele>
        <time>2016-08-12T14:10:25+02:00</time>
      </trkpt>
      <trkpt lat="48.50064" lon="7.15715">
        <ele>593</ele>
        <time>2016-08-12T14:10:41+02:00</time>
      </trkpt>
      <trkpt lat="48.5007" lon="7.15684">
        <ele>595</ele>
        <time>2016-08-12T14:11:03+02:00</time>
      </trkpt>
      <trkpt lat="48.50073" lon="7.15662">
        <ele>596</ele>
        <time>2016-08-12T14:11:20+02:00</time>
      </trkpt>
      <trkpt lat="48.5009" lon="7.15628">
        <ele>602</ele>
        <time>2016-08-12T14:11:39+02:00</time>
      </trkpt>
      <trkpt lat="48.50111" lon="7.15594">
        <ele>609</ele>
        <time>2016-08-12T14:12:01+02:00</time>
      </trkpt>
      <trkpt lat="48.50139" lon="7.15573">
        <ele>617</ele>
        <time>2016-08-12T14:12:24+02:00</time>
      </trkpt>
      <trkpt lat="48.50167" lon="7.15568">
        <ele>626</ele>
        <time>2016-08-12T14:12:44+02:00</time>
      </trkpt>
      <trkpt lat="48.50186" lon="7.15573">
        <ele>631</ele>
      </trkpt>
      <trkpt lat="48.50202" lon="7.15575">
        <ele>634</ele>
        <time>2016-08-12T14:12:52+02:00</time>
      </trkpt>
      <trkpt lat="48.50216" lon="7.15578">
        <ele>637</ele>
        <time>2016-08-12T14:13:07+02:00</time>
      </trkpt>
      <trkpt lat="48.50236" lon="7.15573">
        <ele>641</ele>
        <time>2016-08-12T14:13:24+02:00</time>
      </trkpt>
      <trkpt lat="48.50245" lon="7.15558">
        <ele>642</ele>
        <time>2016-08-12T14:13:40+02:00</time>
      </trkpt>
      <trkpt lat="48.50249" lon="7.15531">
        <ele>642</ele>
        <time>2016-08-12T14:14:00+02:00</time>
      </trkpt>
      <trkpt lat="48.50249" lon="7.15499">
        <ele>642</ele>
        <time>2016-08-12T14:14:16+02:00</time>
      </trkpt>
      <trkpt lat="48.50247" lon="7.15464">
        <ele>642</ele>
        <time>2016-08-12T14:14:34+02:00</time>
      </trkpt>
      <trkpt lat="48.50248" lon="7.1542">
        <ele>642</ele>
        <time>2016-08-12T14:14:56+02:00</time>
      </trkpt>
      <trkpt lat="48.50246" lon="7.15383">
        <ele>643</ele>
        <time>2016-08-12T14:15:16+02:00</time>
      </trkpt>
      <trkpt lat="48.50246" lon="7.1535">
        <ele>644</ele>
        <time>2016-08-12T14:15:37+02:00</time>
      </trkpt>
      <trkpt lat="48.50249" lon="7.15313">
        <ele>645</ele>
        <time>2016-08-12T14:15:56+02:00</time>
      </trkpt>
      <trkpt lat="48.50256" lon="7.15293">
        <ele>647</ele>
        <time>2016-08-12T14:16:16+02:00</time>
      </trkpt>
      <trkpt lat="48.50269" lon="7.1527">
        <ele>651</ele>
        <time>2016-08-12T14:16:34+02:00</time>
      </trkpt>
      <trkpt lat="48.50277" lon="7.15256">
        <ele>654</ele>
        <time>2016-08-12T14:16:52+02:00</time>
      </trkpt>
      <trkpt lat="48.50296" lon="7.15236">
        <ele>660</ele>
        <time>2016-08-12T14:17:11+02:00</time>
      </trkpt>
      <trkpt lat="48.50314" lon="7.15212">
        <ele>665</ele>
        <time>2016-08-12T14:17:30+02:00</time>
      </trkpt>
      <trkpt lat="48.50324" lon="7.15186">
        <ele>668</ele>
        <time>2016-08-12T14:17:52+02:00</time>
      </trkpt>
      <trkpt lat="48.50336" lon="7.15164">
        <ele>671</ele>
        <time>2016-08-12T14:18:11+02:00</time>
      </trkpt>
      <trkpt lat="48.5035" lon="7.15137">
        <ele>674</ele>
        <time>2016-08-12T14:18:33+02:00</time>
      </trkpt>
      <trkpt lat="48.5036" lon="7.15109">
        <ele>677</ele>
        <time>2016-08-12T14:18:52+02:00</time>
      </trkpt>
      <trkpt lat="48.5037" lon="7.15081">
        <ele>679</ele>
        <time>2016-08-12T14:19:09+02:00</time>
      </trkpt>
      <trkpt lat="48.50378" lon="7.15062">
        <ele>682</ele>
        <time>2016-08-12T14:19:30+02:00</time>
      </trkpt>
      <trkpt lat="48.50388" lon="7.15036">
        <ele>686</ele>
        <time>2016-08-12T14:19:51+02:00</time>
      </trkpt>
      <trkpt lat="48.50398" lon="7.15029">
        <ele>690</ele>
        <time>2016-08-12T14:20:05+02:00</time>
      </trkpt>
      <trkpt lat="48.504" lon="7.15003">
        <ele>691</ele>
        <time>2016-08-12T14:20:19+02:00</time>
      </trkpt>
      <trkpt lat="48.50402" lon="7.14986">
        <ele>691</ele>
        <time>2016-08-12T14:20:33+02:00</time>
      </trkpt>
      <trkpt lat="48.50404" lon="7.14968">
        <ele>692</ele>
        <time>2016-08-12T14:20:48+02:00</time>
      </trkpt>
      <trkpt lat="48.50408" lon="7.14935">
        <ele>693</ele>
        <time>2016-08-12T14:21:33+02:00</time>
      </trkpt>
      <trkpt lat="48.50416" lon="7.14901">
        <ele>694</ele>
        <time>2016-08-12T14:22:10+02:00</time>
      </trkpt>
      <trkpt lat="48.50425" lon="7.14868">
        <ele>692</ele>
        <time>2016-08-12T14:22:36+02:00</time>
      </trkpt>
      <trkpt lat="48.50441" lon="7.14832">
        <ele>692</ele>
        <time>2016-08-12T14:22:55+02:00</time>
      </trkpt>
      <trkpt lat="48.50475" lon="7.14821">
        <ele>698</ele>
        <time>2016-08-12T14:23:17+02:00</time>
      </trkpt>
      <trkpt lat="48.50492" lon="7.14819">
        <ele>701</ele>
        <time>2016-08-12T14:23:36+02:00</time>
      </trkpt>
      <trkpt lat="48.5051" lon="7.14802">
        <ele>701</ele>
        <time>2016-08-12T14:23:56+02:00</time>
      </trkpt>
      <trkpt lat="48.50525" lon="7.14802">
        <ele>703</ele>
      </trkpt>
      <trkpt lat="48.50542" lon="7.14805">
        <ele>705</ele>
      </trkpt>
      <trkpt lat="48.50554" lon="7.14823">
        <ele>710</ele>
        <time>2016-08-12T14:24:19+02:00</time>
      </trkpt>
      <trkpt lat="48.50576" lon="7.14806">
        <ele>710</ele>
        <time>2016-08-12T14:24:35+02:00</time>
      </trkpt>
      <trkpt lat="48.506" lon="7.14787">
        <ele>711</ele>
        <time>2016-08-12T14:24:55+02:00</time>
      </trkpt>
      <trkpt lat="48.50625" lon="7.14764">
        <ele>714</ele>
        <time>2016-08-12T14:25:15+02:00</time>
      </trkpt>
      <trkpt lat="48.50651" lon="7.14743">
        <ele>718</ele>
        <time>2016-08-12T14:25:37+02:00</time>
      </trkpt>
      <trkpt lat="48.50675" lon="7.14724">
        <ele>721</ele>
        <time>2016-08-12T14:25:57+02:00</time>
      </trkpt>
      <trkpt lat="48.50681" lon="7.14717">
        <ele>722</ele>
      </trkpt>
      <trkpt lat="48.50686" lon="7.14713">
        <ele>722</ele>
        <time>2016-08-12T14:27:03+02:00</time>
      </trkpt>
    </trkseg>
  </trk>
</gpx>